Observation data for JA Ranch on 08/12/2019      Previous  Date       Current Mesonet Observations  Soil Data  Daily Summary Page  Observations in Plain Language
KPD3 120500Z 34005KT 27/16 A2999 RMK A01 T02670163  RH  053%=      5-min Rain = 0
KPD3 120501Z 34004KT 27/16 A2999 RMK A01 T02680163  RH  053%=      5-min Rain = 0
KPD3 120502Z 34006KT 27/16 A2999 RMK A01 T02670163  RH  053%=      5-min Rain = 0
KPD3 120503Z 35005KT 27/16 A2999 RMK A01 T02670163  RH  053%=      5-min Rain = 0
KPD3 120504Z 35006KT 27/16 A2999 RMK A01 T02670163  RH  053%=      5-min Rain = 0
KPD3 120505Z 35005KT 27/16 A2999 RMK A01 T02670163  RH  053%=      5-min Rain = 0
KPD3 120506Z 34005KT 27/16 A2999 RMK A01 T02670163  RH  053%=      5-min Rain = 0
KPD3 120507Z 34005KT 27/16 A2999 RMK A01 T02670163  RH  053%=      5-min Rain = 0
KPD3 120508Z 35005KT 27/16 A2999 RMK A01 T02670163  RH  053%=      5-min Rain = 0
KPD3 120509Z 35005KT 27/16 A2998 RMK A01 T02670163  RH  053%=      5-min Rain = 0
KPD3 120510Z 36005KT 27/16 A2998 RMK A01 T02670163  RH  053%=      5-min Rain = 0
KPD3 120511Z 36005KT 27/16 A2998 RMK A01 T02660163  RH  053%=      5-min Rain = 0
KPD3 120512Z 36005KT 27/16 A2998 RMK A01 T02660163  RH  053%=      5-min Rain = 0
KPD3 120513Z 36004KT 27/16 A2998 RMK A01 T02650162  RH  053%=      5-min Rain = 0
KPD3 120514Z 36004KT 27/16 A2998 RMK A01 T02650163  RH  053%=      5-min Rain = 0
KPD3 120515Z 35004KT 26/16 A2999 RMK A01 T02640162  RH  054%=      5-min Rain = 0
KPD3 120516Z 00004KT 26/16 A2999 RMK A01 T02640162  RH  054%=      5-min Rain = 0
KPD3 120517Z 01004KT 26/16 A2999 RMK A01 T02630163  RH  054%=      5-min Rain = 0
KPD3 120518Z 02003KT 26/16 A2998 RMK A01 T02630162  RH  054%=      5-min Rain = 0
KPD3 120519Z 02005KT 26/16 A2998 RMK A01 T02630162  RH  054%=      5-min Rain = 0
KPD3 120520Z 02004KT 26/16 A2998 RMK A01 T02630163  RH  054%=      5-min Rain = 0
KPD3 120521Z 03004KT 26/16 A2998 RMK A01 T02630162  RH  054%=      5-min Rain = 0
KPD3 120522Z 04004KT 26/16 A2998 RMK A01 T02630162  RH  054%=      5-min Rain = 0
KPD3 120523Z 04003KT 26/16 A2999 RMK A01 T02620162  RH  054%=      5-min Rain = 0
KPD3 120524Z 03004KT 26/16 A2999 RMK A01 T02610162  RH  054%=      5-min Rain = 0
KPD3 120525Z 03004KT 26/16 A2999 RMK A01 T02600161  RH  054%=      5-min Rain = 0
KPD3 120526Z 03005KT 26/16 A2999 RMK A01 T02590161  RH  055%=      5-min Rain = 0
KPD3 120527Z 03005KT 26/16 A2999 RMK A01 T02580161  RH  055%=      5-min Rain = 0
KPD3 120528Z 03005KT 26/16 A2999 RMK A01 T02570161  RH  055%=      5-min Rain = 0
KPD3 120529Z 03005KT 26/16 A2999 RMK A01 T02560160  RH  056%=      5-min Rain = 0
KPD3 120530Z 03006KT 26/16 A2999 RMK A01 T02550161  RH  056%=      5-min Rain = 0
KPD3 120531Z 03006KT 26/16 A2998 RMK A01 T02550161  RH  056%=      5-min Rain = 0
KPD3 120532Z 02007KT 26/16 A2998 RMK A01 T02560161  RH  056%=      5-min Rain = 0
KPD3 120533Z 02006KT 26/16 A2998 RMK A01 T02560162  RH  056%=      5-min Rain = 0
KPD3 120534Z 03006KT 26/16 A2998 RMK A01 T02580162  RH  056%=      5-min Rain = 0
KPD3 120535Z 03006KT 26/16 A2998 RMK A01 T02590162  RH  055%=      5-min Rain = 0
KPD3 120536Z 03005KT 26/16 A2998 RMK A01 T02590162  RH  055%=      5-min Rain = 0
KPD3 120537Z 03004KT 26/16 A2998 RMK A01 T02590163  RH  055%=      5-min Rain = 0
KPD3 120538Z 03004KT 26/16 A2998 RMK A01 T02580163  RH  055%=      5-min Rain = 0
KPD3 120539Z 03004KT 26/16 A2998 RMK A01 T02580163  RH  056%=      5-min Rain = 0
KPD3 120540Z 03003KT 26/16 A2998 RMK A01 T02590164  RH  056%=      5-min Rain = 0
KPD3 120541Z 03002KT 26/16 A2998 RMK A01 T02590164  RH  056%=      5-min Rain = 0
KPD3 120542Z 02001KT 26/16 A2998 RMK A01 T02590164  RH  056%=      5-min Rain = 0
KPD3 120543Z 05002KT 26/16 A2998 RMK A01 T02590164  RH  056%=      5-min Rain = 0
KPD3 120544Z 03003KT 26/17 A2999 RMK A01 T02590165  RH  056%=      5-min Rain = 0
KPD3 120545Z 03003KT 26/17 A2999 RMK A01 T02580166  RH  057%=      5-min Rain = 0
KPD3 120546Z 03003KT 26/17 A2999 RMK A01 T02570166  RH  057%=      5-min Rain = 0
KPD3 120547Z 03004KT 26/17 A2999 RMK A01 T02570167  RH  058%=      5-min Rain = 0
KPD3 120548Z 03004KT 26/17 A2999 RMK A01 T02570168  RH  058%=      5-min Rain = 0
KPD3 120549Z 04004KT 26/17 A2998 RMK A01 T02570168  RH  058%=      5-min Rain = 0
KPD3 120550Z 04004KT 26/17 A2998 RMK A01 T02570168  RH  058%=      5-min Rain = 0
KPD3 120551Z 04005KT 26/17 A2998 RMK A01 T02560168  RH  058%=      5-min Rain = 0
KPD3 120552Z 04006KT 26/17 A2998 RMK A01 T02550168  RH  059%=      5-min Rain = 0
KPD3 120553Z 03006KT 25/17 A2998 RMK A01 T02540169  RH  059%=      5-min Rain = 0
KPD3 120554Z 03007KT 25/17 A2998 RMK A01 T02540170  RH  060%=      5-min Rain = 0
KPD3 120555Z 02007KT 25/17 A2998 RMK A01 T02540170  RH  060%=      5-min Rain = 0
KPD3 120556Z 02007KT 25/17 A2998 RMK A01 T02530171  RH  060%=      5-min Rain = 0
KPD3 120557Z 02008KT 25/17 A2998 RMK A01 T02530171  RH  060%=      5-min Rain = 0
KPD3 120558Z 02008KT 25/17 A2998 RMK A01 T02530171  RH  061%=      5-min Rain = 0
KPD3 120559Z 02008KT 25/17 A2998 RMK A01 T02530172  RH  061%=      5-min Rain = 0
KPD3 120600Z 02007KT 25/17 A2998 RMK A01 T02530172  RH  061%=      5-min Rain = 0
KPD3 120601Z 02007KT 25/17 A2998 RMK A01 T02540173  RH  061%=      5-min Rain = 0
KPD3 120602Z 02007KT 25/17 A2998 RMK A01 T02540173  RH  061%=      5-min Rain = 0
KPD3 120603Z 02006KT 25/17 A2998 RMK A01 T02530173  RH  061%=      5-min Rain = 0
KPD3 120604Z 02006KT 25/17 A2998 RMK A01 T02540173  RH  061%=      5-min Rain = 0
KPD3 120605Z 01005KT 25/17 A2998 RMK A01 T02530173  RH  061%=      5-min Rain = 0
KPD3 120606Z 02005KT 25/17 A2998 RMK A01 T02540173  RH  061%=      5-min Rain = 0
KPD3 120607Z 02004KT 25/17 A2998 RMK A01 T02540173  RH  061%=      5-min Rain = 0
KPD3 120608Z 02004KT 25/17 A2998 RMK A01 T02540173  RH  061%=      5-min Rain = 0
KPD3 120609Z 02003KT 25/17 A2998 RMK A01 T02530173  RH  061%=      5-min Rain = 0
KPD3 120610Z 01003KT 25/17 A2998 RMK A01 T02530173  RH  061%=      5-min Rain = 0
KPD3 120611Z 01003KT 25/17 A2998 RMK A01 T02530173  RH  061%=      5-min Rain = 0
KPD3 120612Z 01003KT 25/17 A2998 RMK A01 T02530173  RH  061%=      5-min Rain = 0
KPD3 120613Z 01004KT 25/17 A2998 RMK A01 T02530173  RH  061%=      5-min Rain = 0
KPD3 120614Z 01004KT 25/17 A2998 RMK A01 T02520173  RH  061%=      5-min Rain = 0
KPD3 120615Z 00004KT 25/17 A2998 RMK A01 T02520173  RH  062%=      5-min Rain = 0
KPD3 120616Z 36004KT 25/17 A2998 RMK A01 T02510173  RH  062%=      5-min Rain = 0
KPD3 120617Z 35004KT 25/17 A2998 RMK A01 T02500173  RH  062%=      5-min Rain = 0
KPD3 120618Z 36004KT 25/17 A2998 RMK A01 T02490172  RH  062%=      5-min Rain = 0
KPD3 120619Z 00004KT 25/17 A2998 RMK A01 T02480172  RH  063%=      5-min Rain = 0
KPD3 120620Z 00004KT 25/17 A2998 RMK A01 T02470172  RH  063%=      5-min Rain = 0
KPD3 120621Z 01004KT 25/17 A2998 RMK A01 T02460172  RH  063%=      5-min Rain = 0
KPD3 120622Z 01003KT 25/17 A2998 RMK A01 T02450172  RH  064%=      5-min Rain = 0
KPD3 120623Z 02003KT 25/17 A2998 RMK A01 T02450172  RH  064%=      5-min Rain = 0
KPD3 120624Z 01003KT 24/17 A2998 RMK A01 T02440172  RH  064%=      5-min Rain = 0
KPD3 120625Z 01003KT 24/17 A2998 RMK A01 T02440172  RH  064%=      5-min Rain = 0
KPD3 120626Z 36003KT 24/17 A2998 RMK A01 T02440172  RH  064%=      5-min Rain = 0
KPD3 120627Z 34002KT 24/17 A2998 RMK A01 T02430172  RH  065%=      5-min Rain = 0
KPD3 120628Z 31002KT 24/17 A2998 RMK A01 T02430172  RH  065%=      5-min Rain = 0
KPD3 120629Z 28003KT 24/17 A2998 RMK A01 T02420169  RH  064%=      5-min Rain = 0
KPD3 120630Z 26003KT 24/16 A2998 RMK A01 T02360164  RH  064%=      5-min Rain = 0
KPD3 120631Z 26002KT 23/16 A2998 RMK A01 T02310163  RH  065%=      5-min Rain = 0
KPD3 120632Z 26001KT 23/16 A2998 RMK A01 T02280162  RH  066%=      5-min Rain = 0
KPD3 120633Z 25001KT 23/16 A2998 RMK A01 T02260162  RH  067%=      5-min Rain = 0
KPD3 120634Z 24001KT 23/16 A2998 RMK A01 T02250162  RH  068%=      5-min Rain = 0
KPD3 120635Z 24002KT 22/16 A2998 RMK A01 T02230162  RH  068%=      5-min Rain = 0
KPD3 120636Z 24002KT 22/16 A2998 RMK A01 T02210161  RH  069%=      5-min Rain = 0
KPD3 120637Z 24003KT 22/16 A2998 RMK A01 T02200161  RH  069%=      5-min Rain = 0
KPD3 120638Z 25003KT 22/16 A2998 RMK A01 T02180160  RH  069%=      5-min Rain = 0
KPD3 120639Z 25003KT 22/16 A2998 RMK A01 T02170160  RH  070%=      5-min Rain = 0
KPD3 120640Z 25003KT 22/16 A2998 RMK A01 T02160158  RH  070%=      5-min Rain = 0
KPD3 120641Z 24003KT 22/16 A2998 RMK A01 T02160158  RH  070%=      5-min Rain = 0
KPD3 120642Z 23002KT 22/16 A2998 RMK A01 T02150158  RH  070%=      5-min Rain = 0
KPD3 120643Z 22002KT 22/16 A2998 RMK A01 T02150157  RH  069%=      5-min Rain = 0
KPD3 120644Z 22002KT 21/16 A2998 RMK A01 T02140156  RH  069%=      5-min Rain = 0
KPD3 120645Z 22002KT 21/16 A2998 RMK A01 T02130155  RH  070%=      5-min Rain = 0
KPD3 120646Z 22002KT 21/16 A2998 RMK A01 T02120155  RH  070%=      5-min Rain = 0
KPD3 120647Z 22002KT 21/16 A2998 RMK A01 T02110155  RH  070%=      5-min Rain = 0
KPD3 120648Z 20002KT 21/16 A2998 RMK A01 T02110155  RH  070%=      5-min Rain = 0
KPD3 120649Z 19002KT 21/16 A2998 RMK A01 T02100155  RH  071%=      5-min Rain = 0
KPD3 120650Z 19002KT 21/16 A2998 RMK A01 T02100155  RH  071%=      5-min Rain = 0
KPD3 120651Z 20002KT 21/16 A2998 RMK A01 T02100155  RH  071%=      5-min Rain = 0
KPD3 120652Z 22001KT 21/15 A2997 RMK A01 T02090154  RH  071%=      5-min Rain = 0
KPD3 120653Z 24001KT 21/16 A2997 RMK A01 T02090155  RH  071%=      5-min Rain = 0
KPD3 120654Z 26001KT 21/15 A2997 RMK A01 T02090154  RH  071%=      5-min Rain = 0
KPD3 120655Z 27001KT 21/15 A2997 RMK A01 T02090154  RH  071%=      5-min Rain = 0
KPD3 120656Z 28001KT 21/15 A2997 RMK A01 T02090153  RH  070%=      5-min Rain = 0
KPD3 120657Z 29002KT 21/15 A2997 RMK A01 T02080152  RH  070%=      5-min Rain = 0
KPD3 120658Z 28002KT 21/15 A2997 RMK A01 T02090153  RH  070%=      5-min Rain = 0
KPD3 120659Z 26003KT 21/15 A2997 RMK A01 T02090154  RH  071%=      5-min Rain = 0
KPD3 120700Z 25004KT 21/15 A2997 RMK A01 T02090154  RH  071%=      5-min Rain = 0
KPD3 120701Z 25004KT 21/15 A2997 RMK A01 T02100153  RH  070%=      5-min Rain = 0
KPD3 120702Z 25004KT 21/15 A2997 RMK A01 T02100154  RH  070%=      5-min Rain = 0
KPD3 120703Z 26003KT 21/15 A2997 RMK A01 T02100154  RH  070%=      5-min Rain = 0
KPD3 120704Z 26003KT 21/15 A2997 RMK A01 T02100154  RH  071%=      5-min Rain = 0
KPD3 120705Z 24003KT 21/15 A2997 RMK A01 T02090154  RH  071%=      5-min Rain = 0
KPD3 120706Z 23003KT 21/15 A2997 RMK A01 T02090153  RH  070%=      5-min Rain = 0
KPD3 120707Z 23003KT 21/15 A2997 RMK A01 T02090153  RH  070%=      5-min Rain = 0
KPD3 120708Z 24003KT 21/15 A2997 RMK A01 T02080152  RH  070%=      5-min Rain = 0
KPD3 120709Z 25004KT 21/15 A2997 RMK A01 T02070152  RH  070%=      5-min Rain = 0
KPD3 120710Z 25005KT 21/15 A2997 RMK A01 T02060152  RH  071%=      5-min Rain = 0
KPD3 120711Z 25005KT 21/15 A2997 RMK A01 T02060153  RH  071%=      5-min Rain = 0
KPD3 120712Z 25005KT 21/15 A2997 RMK A01 T02050153  RH  072%=      5-min Rain = 0
KPD3 120713Z 25005KT 21/15 A2997 RMK A01 T02050153  RH  072%=      5-min Rain = 0
KPD3 120714Z 25005KT 21/15 A2997 RMK A01 T02050154  RH  072%=      5-min Rain = 0
KPD3 120715Z 26005KT 21/15 A2997 RMK A01 T02060154  RH  072%=      5-min Rain = 0
KPD3 120716Z 26004KT 21/16 A2996 RMK A01 T02060155  RH  072%=      5-min Rain = 0
KPD3 120717Z 26004KT 21/16 A2996 RMK A01 T02060155  RH  072%=      5-min Rain = 0
KPD3 120718Z 26004KT 21/16 A2996 RMK A01 T02070155  RH  072%=      5-min Rain = 0
KPD3 120719Z 25006KT 21/16 A2996 RMK A01 T02070155  RH  072%=      5-min Rain = 0
KPD3 120720Z 24006KT 21/16 A2997 RMK A01 T02070155  RH  072%=      5-min Rain = 0
KPD3 120721Z 24005KT 21/15 A2997 RMK A01 T02070154  RH  072%=      5-min Rain = 0
KPD3 120722Z 25004KT 21/16 A2996 RMK A01 T02060155  RH  072%=      5-min Rain = 0
KPD3 120723Z 28003KT 21/16 A2996 RMK A01 T02060155  RH  073%=      5-min Rain = 0
KPD3 120724Z 29004KT 21/16 A2996 RMK A01 T02070156  RH  073%=      5-min Rain = 0
KPD3 120725Z 28005KT 21/16 A2996 RMK A01 T02070156  RH  072%=      5-min Rain = 0
KPD3 120726Z 27005KT 21/16 A2996 RMK A01 T02070156  RH  072%=      5-min Rain = 0
KPD3 120727Z 24005KT 21/16 A2997 RMK A01 T02070156  RH  072%=      5-min Rain = 0
KPD3 120728Z 23006KT 21/15 A2997 RMK A01 T02060154  RH  072%=      5-min Rain = 0
KPD3 120729Z 25005KT 21/15 A2996 RMK A01 T02050154  RH  072%=      5-min Rain = 0
KPD3 120730Z 27005KT 20/15 A2996 RMK A01 T02040154  RH  073%=      5-min Rain = 0
KPD3 120731Z 28005KT 20/16 A2996 RMK A01 T02040155  RH  073%=      5-min Rain = 0
KPD3 120732Z 28006KT 21/16 A2995 RMK A01 T02060156  RH  073%=      5-min Rain = 0
KPD3 120733Z 27005KT 21/16 A2995 RMK A01 T02070157  RH  073%=      5-min Rain = 0
KPD3 120734Z 26006KT 21/16 A2996 RMK A01 T02080157  RH  073%=      5-min Rain = 0
KPD3 120735Z 25005KT 21/16 A2996 RMK A01 T02090157  RH  072%=      5-min Rain = 0
KPD3 120736Z 25005KT 21/16 A2996 RMK A01 T02080156  RH  072%=      5-min Rain = 0
KPD3 120737Z 25004KT 21/16 A2996 RMK A01 T02070155  RH  072%=      5-min Rain = 0
KPD3 120738Z 26005KT 21/16 A2996 RMK A01 T02070155  RH  072%=      5-min Rain = 0
KPD3 120739Z 25006KT 21/16 A2996 RMK A01 T02060155  RH  072%=      5-min Rain = 0
KPD3 120740Z 25007KT 21/16 A2996 RMK A01 T02060155  RH  073%=      5-min Rain = 0
KPD3 120741Z 25007KT 21/16 A2996 RMK A01 T02060156  RH  073%=      5-min Rain = 0
KPD3 120742Z 26005KT 21/16 A2996 RMK A01 T02060156  RH  073%=      5-min Rain = 0
KPD3 120743Z 27003KT 21/16 A2995 RMK A01 T02070157  RH  073%=      5-min Rain = 0
KPD3 120744Z 28002KT 21/16 A2995 RMK A01 T02080157  RH  073%=      5-min Rain = 0
KPD3 120745Z 28002KT 21/16 A2995 RMK A01 T02080157  RH  072%=      5-min Rain = 0
KPD3 120746Z 27003KT 21/16 A2995 RMK A01 T02090157  RH  072%=      5-min Rain = 0
KPD3 120747Z 26005KT 21/16 A2995 RMK A01 T02080157  RH  072%=      5-min Rain = 0
KPD3 120748Z 26006KT 21/16 A2995 RMK A01 T02080157  RH  072%=      5-min Rain = 0
KPD3 120749Z 26006KT 21/16 A2995 RMK A01 T02080156  RH  072%=      5-min Rain = 0
KPD3 120750Z 25004KT 21/16 A2995 RMK A01 T02070156  RH  072%=      5-min Rain = 0
KPD3 120751Z 24003KT 21/16 A2995 RMK A01 T02070156  RH  073%=      5-min Rain = 0
KPD3 120752Z 24002KT 21/16 A2995 RMK A01 T02070156  RH  073%=      5-min Rain = 0
KPD3 120753Z 25002KT 21/16 A2994 RMK A01 T02060156  RH  073%=      5-min Rain = 0
KPD3 120754Z 25002KT 21/16 A2994 RMK A01 T02060156  RH  073%=      5-min Rain = 0
KPD3 120755Z 24001KT 21/16 A2994 RMK A01 T02060156  RH  073%=      5-min Rain = 0
KPD3 120756Z 24001KT 21/16 A2994 RMK A01 T02060155  RH  073%=      5-min Rain = 0
KPD3 120757Z 26001KT 21/16 A2994 RMK A01 T02060155  RH  072%=      5-min Rain = 0
KPD3 120758Z 27001KT 21/15 A2994 RMK A01 T02050154  RH  073%=      5-min Rain = 0
KPD3 120759Z 27001KT 21/15 A2994 RMK A01 T02050154  RH  073%=      5-min Rain = 0
KPD3 120800Z 26002KT 20/15 A2994 RMK A01 T02040154  RH  073%=      5-min Rain = 0
KPD3 120801Z 26002KT 20/15 A2994 RMK A01 T02040154  RH  073%=      5-min Rain = 0
KPD3 120802Z 28002KT 20/15 A2994 RMK A01 T02040154  RH  073%=      5-min Rain = 0
KPD3 120803Z 29002KT 20/15 A2994 RMK A01 T02030154  RH  073%=      5-min Rain = 0
KPD3 120804Z 33001KT 20/15 A2994 RMK A01 T02030154  RH  073%=      5-min Rain = 0
KPD3 120805Z 33002KT 20/15 A2994 RMK A01 T02030154  RH  073%=      5-min Rain = 0
KPD3 120806Z 33002KT 20/15 A2994 RMK A01 T02030154  RH  074%=      5-min Rain = 0
KPD3 120807Z 32001KT 20/16 A2994 RMK A01 T02020155  RH  074%=      5-min Rain = 0
KPD3 120808Z 31001KT 20/16 A2994 RMK A01 T02020155  RH  075%=      5-min Rain = 0
KPD3 120809Z 30001KT 20/16 A2994 RMK A01 T02010155  RH  075%=      5-min Rain = 0
KPD3 120810Z 30002KT 20/16 A2994 RMK A01 T02010155  RH  075%=      5-min Rain = 0
KPD3 120811Z 29003KT 20/16 A2994 RMK A01 T02000155  RH  075%=      5-min Rain = 0
KPD3 120812Z 29003KT 20/15 A2994 RMK A01 T02000154  RH  075%=      5-min Rain = 0
KPD3 120813Z 29004KT 20/15 A2994 RMK A01 T01990153  RH  075%=      5-min Rain = 0
KPD3 120814Z 28004KT 20/15 A2994 RMK A01 T01990153  RH  074%=      5-min Rain = 0
KPD3 120815Z 28004KT 20/15 A2994 RMK A01 T01990152  RH  074%=      5-min Rain = 0
KPD3 120816Z 29005KT 20/15 A2994 RMK A01 T01980152  RH  075%=      5-min Rain = 0
KPD3 120817Z 30005KT 20/15 A2994 RMK A01 T01970153  RH  075%=      5-min Rain = 0
KPD3 120818Z 30005KT 20/15 A2994 RMK A01 T01970154  RH  076%=      5-min Rain = 0
KPD3 120819Z 31005KT 20/15 A2994 RMK A01 T01970154  RH  076%=      5-min Rain = 0
KPD3 120820Z 30005KT 20/16 A2994 RMK A01 T01980155  RH  076%=      5-min Rain = 0
KPD3 120821Z 30005KT 20/16 A2994 RMK A01 T01980156  RH  076%=      5-min Rain = 0
KPD3 120822Z 31005KT 20/16 A2994 RMK A01 T01990156  RH  076%=      5-min Rain = 0
KPD3 120823Z 31005KT 20/16 A2995 RMK A01 T02000156  RH  076%=      5-min Rain = 0
KPD3 120824Z 31005KT 20/16 A2995 RMK A01 T02000156  RH  076%=      5-min Rain = 0
KPD3 120825Z 31005KT 20/16 A2995 RMK A01 T02000156  RH  076%=      5-min Rain = 0
KPD3 120826Z 31005KT 20/16 A2995 RMK A01 T02000156  RH  076%=      5-min Rain = 0
KPD3 120827Z 31005KT 20/16 A2995 RMK A01 T02000157  RH  076%=      5-min Rain = 0
KPD3 120828Z 32005KT 20/16 A2995 RMK A01 T02000157  RH  076%=      5-min Rain = 0
KPD3 120829Z 31005KT 20/16 A2995 RMK A01 T02000157  RH  076%=      5-min Rain = 0
KPD3 120830Z 31005KT 20/16 A2995 RMK A01 T02000157  RH  076%=      5-min Rain = 0
KPD3 120831Z 31005KT 20/16 A2995 RMK A01 T02000157  RH  076%=      5-min Rain = 0
KPD3 120832Z 31005KT 20/16 A2995 RMK A01 T02000157  RH  076%=      5-min Rain = 0
KPD3 120833Z 30005KT 20/16 A2995 RMK A01 T02000157  RH  076%=      5-min Rain = 0
KPD3 120834Z 30005KT 20/16 A2995 RMK A01 T02000156  RH  076%=      5-min Rain = 0
KPD3 120835Z 30006KT 20/16 A2995 RMK A01 T02000156  RH  076%=      5-min Rain = 0
KPD3 120836Z 29005KT 20/16 A2995 RMK A01 T01990156  RH  076%=      5-min Rain = 0
KPD3 120837Z 29004KT 20/16 A2995 RMK A01 T01980156  RH  076%=      5-min Rain = 0
KPD3 120838Z 29004KT 20/16 A2995 RMK A01 T01980156  RH  076%=      5-min Rain = 0
KPD3 120839Z 29004KT 20/16 A2995 RMK A01 T01980156  RH  077%=      5-min Rain = 0
KPD3 120840Z 28003KT 20/16 A2995 RMK A01 T01980156  RH  077%=      5-min Rain = 0
KPD3 120841Z 28003KT 20/16 A2995 RMK A01 T01980156  RH  077%=      5-min Rain = 0
KPD3 120842Z 28003KT 20/16 A2995 RMK A01 T01980156  RH  077%=      5-min Rain = 0
KPD3 120843Z 28003KT 20/16 A2995 RMK A01 T01980156  RH  077%=      5-min Rain = 0
KPD3 120844Z 27003KT 20/16 A2995 RMK A01 T01980155  RH  076%=      5-min Rain = 0
KPD3 120845Z 28004KT 20/16 A2995 RMK A01 T01970155  RH  076%=      5-min Rain = 0
KPD3 120846Z 28005KT 20/15 A2995 RMK A01 T01970154  RH  076%=      5-min Rain = 0
KPD3 120847Z 28004KT 20/16 A2995 RMK A01 T01970155  RH  076%=      5-min Rain = 0
KPD3 120848Z 28004KT 20/15 A2995 RMK A01 T01960154  RH  077%=      5-min Rain = 0
KPD3 120849Z 28004KT 20/15 A2996 RMK A01 T01960154  RH  077%=      5-min Rain = 0
KPD3 120850Z 29004KT 20/15 A2996 RMK A01 T01960154  RH  077%=      5-min Rain = 0
KPD3 120851Z 29004KT 20/15 A2996 RMK A01 T01960154  RH  077%=      5-min Rain = 0
KPD3 120852Z 30004KT 20/15 A2996 RMK A01 T01960154  RH  077%=      5-min Rain = 0
KPD3 120853Z 31004KT 20/16 A2996 RMK A01 T01950155  RH  077%=      5-min Rain = 0
KPD3 120854Z 31004KT 20/16 A2996 RMK A01 T01950155  RH  078%=      5-min Rain = 0
KPD3 120855Z 31004KT 20/16 A2996 RMK A01 T01950157  RH  078%=      5-min Rain = 0
KPD3 120856Z 32004KT 20/16 A2996 RMK A01 T01960157  RH  078%=      5-min Rain = 0
KPD3 120857Z 32004KT 20/16 A2996 RMK A01 T01970158  RH  078%=      5-min Rain = 0
KPD3 120858Z 32004KT 20/16 A2996 RMK A01 T01980157  RH  077%=      5-min Rain = 0
KPD3 120859Z 33004KT 20/16 A2995 RMK A01 T01990157  RH  077%=      5-min Rain = 0
KPD3 120900Z 33003KT 20/16 A2995 RMK A01 T01990158  RH  077%=      5-min Rain = 0
KPD3 120901Z 33003KT 20/16 A2995 RMK A01 T02000158  RH  077%=      5-min Rain = 0
KPD3 120902Z 33003KT 20/16 A2995 RMK A01 T02000157  RH  076%=      5-min Rain = 0
KPD3 120903Z 33003KT 20/16 A2995 RMK A01 T02010158  RH  076%=      5-min Rain = 0
KPD3 120904Z 33003KT 20/16 A2995 RMK A01 T02010158  RH  076%=      5-min Rain = 0
KPD3 120905Z 32002KT 20/16 A2995 RMK A01 T02020159  RH  076%=      5-min Rain = 0
KPD3 120906Z 32002KT 20/16 A2995 RMK A01 T02020159  RH  076%=      5-min Rain = 0
KPD3 120907Z 33002KT 20/16 A2995 RMK A01 T02030159  RH  076%=      5-min Rain = 0
KPD3 120908Z 33003KT 20/16 A2995 RMK A01 T02030159  RH  076%=      5-min Rain = 0
KPD3 120909Z 32002KT 20/16 A2995 RMK A01 T02040160  RH  076%=      5-min Rain = 0
KPD3 120910Z 33003KT 21/16 A2995 RMK A01 T02050160  RH  075%=      5-min Rain = 0
KPD3 120911Z 34003KT 21/16 A2995 RMK A01 T02060161  RH  075%=      5-min Rain = 0
KPD3 120912Z 35005KT 21/16 A2995 RMK A01 T02060160  RH  075%=      5-min Rain = 0
KPD3 120913Z 35005KT 21/16 A2995 RMK A01 T02060160  RH  075%=      5-min Rain = 0
KPD3 120914Z 35005KT 21/16 A2995 RMK A01 T02060160  RH  075%=      5-min Rain = 0
KPD3 120915Z 34004KT 21/16 A2995 RMK A01 T02060160  RH  075%=      5-min Rain = 0
KPD3 120916Z 33004KT 21/16 A2995 RMK A01 T02050160  RH  075%=      5-min Rain = 0
KPD3 120917Z 33004KT 21/16 A2995 RMK A01 T02050160  RH  075%=      5-min Rain = 0
KPD3 120918Z 35003KT 21/16 A2995 RMK A01 T02050160  RH  075%=      5-min Rain = 0
KPD3 120919Z 35003KT 21/16 A2995 RMK A01 T02050159  RH  075%=      5-min Rain = 0
KPD3 120920Z 34002KT 21/16 A2995 RMK A01 T02050159  RH  075%=      5-min Rain = 0
KPD3 120921Z 28001KT 21/16 A2995 RMK A01 T02050157  RH  074%=      5-min Rain = 0
KPD3 120922Z 27001KT 20/16 A2995 RMK A01 T02030155  RH  074%=      5-min Rain = 0
KPD3 120923Z 30001KT 20/15 A2995 RMK A01 T02010154  RH  075%=      5-min Rain = 0
KPD3 120924Z 30002KT 20/16 A2995 RMK A01 T01990157  RH  077%=      5-min Rain = 0
KPD3 120925Z 31003KT 20/16 A2995 RMK A01 T01990157  RH  077%=      5-min Rain = 0
KPD3 120926Z 31004KT 20/16 A2995 RMK A01 T01990157  RH  076%=      5-min Rain = 0
KPD3 120927Z 31004KT 20/16 A2995 RMK A01 T01990157  RH  076%=      5-min Rain = 0
KPD3 120928Z 32004KT 20/16 A2995 RMK A01 T01990157  RH  077%=      5-min Rain = 0
KPD3 120929Z 32003KT 20/16 A2995 RMK A01 T02000158  RH  077%=      5-min Rain = 0
KPD3 120930Z 33003KT 20/16 A2995 RMK A01 T02000158  RH  077%=      5-min Rain = 0
KPD3 120931Z 33003KT 20/16 A2995 RMK A01 T02000158  RH  077%=      5-min Rain = 0
KPD3 120932Z 33003KT 20/16 A2995 RMK A01 T02000158  RH  076%=      5-min Rain = 0
KPD3 120933Z 33003KT 20/16 A2995 RMK A01 T02010158  RH  076%=      5-min Rain = 0
KPD3 120934Z 32003KT 20/16 A2995 RMK A01 T02010158  RH  076%=      5-min Rain = 0
KPD3 120935Z 32003KT 20/16 A2995 RMK A01 T02010158  RH  076%=      5-min Rain = 0
KPD3 120936Z 31003KT 20/16 A2995 RMK A01 T02010158  RH  076%=      5-min Rain = 0
KPD3 120937Z 31004KT 20/16 A2995 RMK A01 T02010158  RH  076%=      5-min Rain = 0
KPD3 120938Z 31004KT 20/16 A2995 RMK A01 T02010157  RH  076%=      5-min Rain = 0
KPD3 120939Z 31005KT 20/16 A2995 RMK A01 T02000157  RH  076%=      5-min Rain = 0
KPD3 120940Z 31005KT 20/16 A2995 RMK A01 T01990157  RH  076%=      5-min Rain = 0
KPD3 120941Z 31004KT 20/16 A2995 RMK A01 T01990157  RH  077%=      5-min Rain = 0
KPD3 120942Z 31004KT 20/16 A2995 RMK A01 T01980156  RH  077%=      5-min Rain = 0
KPD3 120943Z 32005KT 20/16 A2995 RMK A01 T01970156  RH  077%=      5-min Rain = 0
KPD3 120944Z 31004KT 20/16 A2995 RMK A01 T01970157  RH  078%=      5-min Rain = 0
KPD3 120945Z 31003KT 20/16 A2995 RMK A01 T01970157  RH  078%=      5-min Rain = 0
KPD3 120946Z 31003KT 20/16 A2995 RMK A01 T01970157  RH  078%=      5-min Rain = 0
KPD3 120947Z 31003KT 20/16 A2995 RMK A01 T01970157  RH  077%=      5-min Rain = 0
KPD3 120948Z 31003KT 20/16 A2995 RMK A01 T01980157  RH  077%=      5-min Rain = 0
KPD3 120949Z 31003KT 20/16 A2995 RMK A01 T01980157  RH  077%=      5-min Rain = 0
KPD3 120950Z 30003KT 20/16 A2995 RMK A01 T01990157  RH  077%=      5-min Rain = 0
KPD3 120951Z 30003KT 20/16 A2995 RMK A01 T01990156  RH  076%=      5-min Rain = 0
KPD3 120952Z 30003KT 20/16 A2995 RMK A01 T01990156  RH  076%=      5-min Rain = 0
KPD3 120953Z 31003KT 20/16 A2995 RMK A01 T01980156  RH  076%=      5-min Rain = 0
KPD3 120954Z 30003KT 20/16 A2995 RMK A01 T01980156  RH  077%=      5-min Rain = 0
KPD3 120955Z 29003KT 20/16 A2995 RMK A01 T01980156  RH  077%=      5-min Rain = 0
KPD3 120956Z 29003KT 20/16 A2995 RMK A01 T01970156  RH  077%=      5-min Rain = 0
KPD3 120957Z 30003KT 20/16 A2995 RMK A01 T01970156  RH  077%=      5-min Rain = 0
KPD3 120958Z 31003KT 20/16 A2995 RMK A01 T01970156  RH  077%=      5-min Rain = 0
KPD3 120959Z 31002KT 20/16 A2995 RMK A01 T01970156  RH  077%=      5-min Rain = 0
KPD3 121000Z 31002KT 20/16 A2995 RMK A01 T01960155  RH  077%=      5-min Rain = 0
KPD3 121001Z 31002KT 20/16 A2995 RMK A01 T01960156  RH  078%=      5-min Rain = 0
KPD3 121002Z 31002KT 20/16 A2995 RMK A01 T01960156  RH  078%=      5-min Rain = 0
KPD3 121003Z 31002KT 20/16 A2995 RMK A01 T01960155  RH  078%=      5-min Rain = 0
KPD3 121004Z 31002KT 20/16 A2995 RMK A01 T01960156  RH  078%=      5-min Rain = 0
KPD3 121005Z 31002KT 20/16 A2995 RMK A01 T01960156  RH  078%=      5-min Rain = 0
KPD3 121006Z 31002KT 20/16 A2995 RMK A01 T01960156  RH  078%=      5-min Rain = 0
KPD3 121007Z 31002KT 20/16 A2995 RMK A01 T01950155  RH  078%=      5-min Rain = 0
KPD3 121008Z 30002KT 20/16 A2995 RMK A01 T01950155  RH  078%=      5-min Rain = 0
KPD3 121009Z 31002KT 20/16 A2995 RMK A01 T01950155  RH  077%=      5-min Rain = 0
KPD3 121010Z 32002KT 20/16 A2995 RMK A01 T01950155  RH  078%=      5-min Rain = 0
KPD3 121011Z 32003KT 20/15 A2995 RMK A01 T01950154  RH  077%=      5-min Rain = 0
KPD3 121012Z 32002KT 20/16 A2995 RMK A01 T01950155  RH  077%=      5-min Rain = 0
KPD3 121013Z 33002KT 20/16 A2995 RMK A01 T01950155  RH  078%=      5-min Rain = 0
KPD3 121014Z 34002KT 20/16 A2995 RMK A01 T01950155  RH  078%=      5-min Rain = 0
KPD3 121015Z 35002KT 19/16 A2995 RMK A01 T01940155  RH  078%=      5-min Rain = 0
KPD3 121016Z 36002KT 19/15 A2995 RMK A01 T01940154  RH  078%=      5-min Rain = 0
KPD3 121017Z 01003KT 20/16 A2995 RMK A01 T01950155  RH  078%=      5-min Rain = 0
KPD3 121018Z 36003KT 20/16 A2995 RMK A01 T01950155  RH  077%=      5-min Rain = 0
KPD3 121019Z 35003KT 20/15 A2995 RMK A01 T01950154  RH  077%=      5-min Rain = 0
KPD3 121020Z 33003KT 20/16 A2995 RMK A01 T01960155  RH  077%=      5-min Rain = 0
KPD3 121021Z 32003KT 20/16 A2995 RMK A01 T01960155  RH  077%=      5-min Rain = 0
KPD3 121022Z 32003KT 20/15 A2995 RMK A01 T01960154  RH  077%=      5-min Rain = 0
KPD3 121023Z 31003KT 20/15 A2995 RMK A01 T01960154  RH  077%=      5-min Rain = 0
KPD3 121024Z 31003KT 20/15 A2995 RMK A01 T01950153  RH  077%=      5-min Rain = 0
KPD3 121025Z 30002KT 19/15 A2995 RMK A01 T01940153  RH  077%=      5-min Rain = 0
KPD3 121026Z 28001KT 19/15 A2995 RMK A01 T01930151  RH  077%=      5-min Rain = 0
KPD3 121027Z 29001KT 19/15 A2995 RMK A01 T01910152  RH  078%=      5-min Rain = 0
KPD3 121028Z 29001KT 19/15 A2995 RMK A01 T01900152  RH  078%=      5-min Rain = 0
KPD3 121029Z 00000KT 19/15 A2995 RMK A01 T01900153  RH  079%=      5-min Rain = 0
KPD3 121030Z 00000KT 19/15 A2995 RMK A01 T01900153  RH  079%=      5-min Rain = 0
KPD3 121031Z 00000KT 19/15 A2995 RMK A01 T01900152  RH  078%=      5-min Rain = 0
KPD3 121032Z 00000KT 19/15 A2995 RMK A01 T01900152  RH  078%=      5-min Rain = 0
KPD3 121033Z 00000KT 19/15 A2995 RMK A01 T01890151  RH  078%=      5-min Rain = 0
KPD3 121034Z 29001KT 19/15 A2995 RMK A01 T01890152  RH  079%=      5-min Rain = 0
KPD3 121035Z 27002KT 19/15 A2995 RMK A01 T01890152  RH  079%=      5-min Rain = 0
KPD3 121036Z 27002KT 19/15 A2995 RMK A01 T01890152  RH  079%=      5-min Rain = 0
KPD3 121037Z 28002KT 19/15 A2995 RMK A01 T01900153  RH  079%=      5-min Rain = 0
KPD3 121038Z 29002KT 19/15 A2995 RMK A01 T01910152  RH  078%=      5-min Rain = 0
KPD3 121039Z 28002KT 19/15 A2995 RMK A01 T01910152  RH  078%=      5-min Rain = 0
KPD3 121040Z 28003KT 19/15 A2995 RMK A01 T01910152  RH  078%=      5-min Rain = 0
KPD3 121041Z 28004KT 19/15 A2995 RMK A01 T01910152  RH  078%=      5-min Rain = 0
KPD3 121042Z 29004KT 19/15 A2995 RMK A01 T01910152  RH  078%=      5-min Rain = 0
KPD3 121043Z 30003KT 19/15 A2995 RMK A01 T01900152  RH  078%=      5-min Rain = 0
KPD3 121044Z 31003KT 19/15 A2995 RMK A01 T01900152  RH  079%=      5-min Rain = 0
KPD3 121045Z 29003KT 19/15 A2995 RMK A01 T01900153  RH  079%=      5-min Rain = 0
KPD3 121046Z 29004KT 19/15 A2995 RMK A01 T01900153  RH  079%=      5-min Rain = 0
KPD3 121047Z 30004KT 19/15 A2995 RMK A01 T01900152  RH  079%=      5-min Rain = 0
KPD3 121048Z 30004KT 19/15 A2995 RMK A01 T01900152  RH  079%=      5-min Rain = 0
KPD3 121049Z 31003KT 19/15 A2995 RMK A01 T01900153  RH  079%=      5-min Rain = 0
KPD3 121050Z 32003KT 19/15 A2995 RMK A01 T01900153  RH  079%=      5-min Rain = 0
KPD3 121051Z 32002KT 19/15 A2995 RMK A01 T01900153  RH  079%=      5-min Rain = 0
KPD3 121052Z 31002KT 19/15 A2995 RMK A01 T01900152  RH  079%=      5-min Rain = 0
KPD3 121053Z 30003KT 19/15 A2995 RMK A01 T01900153  RH  079%=      5-min Rain = 0
KPD3 121054Z 29003KT 19/15 A2995 RMK A01 T01910153  RH  079%=      5-min Rain = 0
KPD3 121055Z 31002KT 19/15 A2995 RMK A01 T01910153  RH  079%=      5-min Rain = 0
KPD3 121056Z 32002KT 19/15 A2995 RMK A01 T01910153  RH  079%=      5-min Rain = 0
KPD3 121057Z 32002KT 19/15 A2995 RMK A01 T01910153  RH  079%=      5-min Rain = 0
KPD3 121058Z 33001KT 19/15 A2995 RMK A01 T01910153  RH  079%=      5-min Rain = 0
KPD3 121059Z 33000KT 19/15 A2995 RMK A01 T01910153  RH  079%=      5-min Rain = 0
KPD3 121100Z 00000KT 19/15 A2995 RMK A01 T01910153  RH  078%=      5-min Rain = 0
KPD3 121101Z 27000KT 19/15 A2995 RMK A01 T01910152  RH  078%=      5-min Rain = 0
KPD3 121102Z 27002KT 19/15 A2995 RMK A01 T01910150  RH  077%=      5-min Rain = 0
KPD3 121103Z 28003KT 19/15 A2995 RMK A01 T01890149  RH  078%=      5-min Rain = 0
KPD3 121104Z 28003KT 19/15 A2995 RMK A01 T01880150  RH  079%=      5-min Rain = 0
KPD3 121105Z 29003KT 19/15 A2995 RMK A01 T01880151  RH  079%=      5-min Rain = 0
KPD3 121106Z 31003KT 19/15 A2995 RMK A01 T01880151  RH  079%=      5-min Rain = 0
KPD3 121107Z 32003KT 19/15 A2995 RMK A01 T01880151  RH  079%=      5-min Rain = 0
KPD3 121108Z 30002KT 19/15 A2995 RMK A01 T01880151  RH  079%=      5-min Rain = 0
KPD3 121109Z 28002KT 19/15 A2995 RMK A01 T01880151  RH  079%=      5-min Rain = 0
KPD3 121110Z 27002KT 19/15 A2995 RMK A01 T01880151  RH  079%=      5-min Rain = 0
KPD3 121111Z 27002KT 19/15 A2995 RMK A01 T01880151  RH  079%=      5-min Rain = 0
KPD3 121112Z 27002KT 19/15 A2995 RMK A01 T01880151  RH  079%=      5-min Rain = 0
KPD3 121113Z 28001KT 19/15 A2995 RMK A01 T01880151  RH  079%=      5-min Rain = 0
KPD3 121114Z 30002KT 19/15 A2995 RMK A01 T01880151  RH  079%=      5-min Rain = 0
KPD3 121115Z 30002KT 19/15 A2995 RMK A01 T01880151  RH  079%=      5-min Rain = 0
KPD3 121116Z 29002KT 19/15 A2995 RMK A01 T01880151  RH  079%=      5-min Rain = 0
KPD3 121117Z 30002KT 19/15 A2995 RMK A01 T01880151  RH  079%=      5-min Rain = 0
KPD3 121118Z 29002KT 19/15 A2995 RMK A01 T01880151  RH  079%=      5-min Rain = 0
KPD3 121119Z 29003KT 19/15 A2995 RMK A01 T01880151  RH  079%=      5-min Rain = 0
KPD3 121120Z 29004KT 19/15 A2995 RMK A01 T01880151  RH  079%=      5-min Rain = 0
KPD3 121121Z 29004KT 19/15 A2995 RMK A01 T01880150  RH  079%=      5-min Rain = 0
KPD3 121122Z 29005KT 19/15 A2995 RMK A01 T01880151  RH  079%=      5-min Rain = 0
KPD3 121123Z 29005KT 19/15 A2995 RMK A01 T01880152  RH  079%=      5-min Rain = 0
KPD3 121124Z 28005KT 19/15 A2995 RMK A01 T01900153  RH  079%=      5-min Rain = 0
KPD3 121125Z 29005KT 19/15 A2995 RMK A01 T01910153  RH  079%=      5-min Rain = 0
KPD3 121126Z 29005KT 19/15 A2995 RMK A01 T01930154  RH  078%=      5-min Rain = 0
KPD3 121127Z 29005KT 19/15 A2995 RMK A01 T01930154  RH  078%=      5-min Rain = 0
KPD3 121128Z 30005KT 19/16 A2996 RMK A01 T01940155  RH  078%=      5-min Rain = 0
KPD3 121129Z 30005KT 20/16 A2996 RMK A01 T01950155  RH  078%=      5-min Rain = 0
KPD3 121130Z 30004KT 20/16 A2996 RMK A01 T01960156  RH  078%=      5-min Rain = 0
KPD3 121131Z 29004KT 20/16 A2996 RMK A01 T01960156  RH  077%=      5-min Rain = 0
KPD3 121132Z 29004KT 20/16 A2996 RMK A01 T01970156  RH  077%=      5-min Rain = 0
KPD3 121133Z 29004KT 20/16 A2996 RMK A01 T01980156  RH  077%=      5-min Rain = 0
KPD3 121134Z 29004KT 20/16 A2995 RMK A01 T01980157  RH  077%=      5-min Rain = 0
KPD3 121135Z 30003KT 20/16 A2995 RMK A01 T01990157  RH  077%=      5-min Rain = 0
KPD3 121136Z 30002KT 20/16 A2995 RMK A01 T01990157  RH  077%=      5-min Rain = 0
KPD3 121137Z 30002KT 20/16 A2995 RMK A01 T01990157  RH  077%=      5-min Rain = 0
KPD3 121138Z 31002KT 20/16 A2995 RMK A01 T01990157  RH  077%=      5-min Rain = 0
KPD3 121139Z 32002KT 20/16 A2995 RMK A01 T01990157  RH  077%=      5-min Rain = 0
KPD3 121140Z 31002KT 20/16 A2995 RMK A01 T01990157  RH  077%=      5-min Rain = 0
KPD3 121141Z 31003KT 20/16 A2995 RMK A01 T01980157  RH  077%=      5-min Rain = 0
KPD3 121142Z 31003KT 20/16 A2995 RMK A01 T01980157  RH  077%=      5-min Rain = 0
KPD3 121143Z 31003KT 20/16 A2995 RMK A01 T01980157  RH  077%=      5-min Rain = 0
KPD3 121144Z 30003KT 20/16 A2995 RMK A01 T01980157  RH  077%=      5-min Rain = 0
KPD3 121145Z 30003KT 20/16 A2995 RMK A01 T01980157  RH  077%=      5-min Rain = 0
KPD3 121146Z 30003KT 20/16 A2995 RMK A01 T01980157  RH  077%=      5-min Rain = 0
KPD3 121147Z 31003KT 20/16 A2995 RMK A01 T01980157  RH  077%=      5-min Rain = 0
KPD3 121148Z 31004KT 20/16 A2995 RMK A01 T01990157  RH  077%=      5-min Rain = 0
KPD3 121149Z 31004KT 20/16 A2996 RMK A01 T02000157  RH  077%=      5-min Rain = 0
KPD3 121150Z 31004KT 20/16 A2996 RMK A01 T01990157  RH  077%=      5-min Rain = 0
KPD3 121151Z 31004KT 20/16 A2996 RMK A01 T02000157  RH  077%=      5-min Rain = 0
KPD3 121152Z 31004KT 20/16 A2996 RMK A01 T02000157  RH  076%=      5-min Rain = 0
KPD3 121153Z 31003KT 20/16 A2996 RMK A01 T02000157  RH  076%=      5-min Rain = 0
KPD3 121154Z 31003KT 20/16 A2996 RMK A01 T02000157  RH  076%=      5-min Rain = 0
KPD3 121155Z 31003KT 20/16 A2996 RMK A01 T02000157  RH  076%=      5-min Rain = 0
KPD3 121156Z 31003KT 20/16 A2996 RMK A01 T02000158  RH  077%=      5-min Rain = 0
KPD3 121157Z 32003KT 20/16 A2996 RMK A01 T02000157  RH  077%=      5-min Rain = 0
KPD3 121158Z 31003KT 20/16 A2996 RMK A01 T02000158  RH  077%=      5-min Rain = 0
KPD3 121159Z 31003KT 20/16 A2996 RMK A01 T02000158  RH  077%=      5-min Rain = 0
KPD3 121200Z 31003KT 20/16 A2996 RMK A01 T01990157  RH  077%=      5-min Rain = 0
KPD3 121201Z 31003KT 20/16 A2996 RMK A01 T01990157  RH  077%=      5-min Rain = 0
KPD3 121202Z 31003KT 20/16 A2996 RMK A01 T01990157  RH  077%=      5-min Rain = 0
KPD3 121203Z 31003KT 20/16 A2996 RMK A01 T01990157  RH  077%=      5-min Rain = 0
KPD3 121204Z 31003KT 20/16 A2996 RMK A01 T01990158  RH  077%=      5-min Rain = 0
KPD3 121205Z 30002KT 20/16 A2996 RMK A01 T01990157  RH  077%=      5-min Rain = 0
KPD3 121206Z 31002KT 20/16 A2996 RMK A01 T01990157  RH  077%=      5-min Rain = 0
KPD3 121207Z 31002KT 20/16 A2996 RMK A01 T01990158  RH  077%=      5-min Rain = 0
KPD3 121208Z 32002KT 20/16 A2996 RMK A01 T01990157  RH  077%=      5-min Rain = 0
KPD3 121209Z 33002KT 20/16 A2995 RMK A01 T01990157  RH  077%=      5-min Rain = 0
KPD3 121210Z 33002KT 20/16 A2995 RMK A01 T01990157  RH  077%=      5-min Rain = 0
KPD3 121211Z 31002KT 20/16 A2995 RMK A01 T01990157  RH  077%=      5-min Rain = 0
KPD3 121212Z 30001KT 20/16 A2995 RMK A01 T01990157  RH  076%=      5-min Rain = 0
KPD3 121213Z 28001KT 20/16 A2995 RMK A01 T02000157  RH  076%=      5-min Rain = 0
KPD3 121214Z 28002KT 20/16 A2995 RMK A01 T02000157  RH  076%=      5-min Rain = 0
KPD3 121215Z 28002KT 20/16 A2995 RMK A01 T02000157  RH  076%=      5-min Rain = 0
KPD3 121216Z 28002KT 20/16 A2995 RMK A01 T02000156  RH  076%=      5-min Rain = 0
KPD3 121217Z 28002KT 20/16 A2995 RMK A01 T02000156  RH  076%=      5-min Rain = 0
KPD3 121218Z 28002KT 20/16 A2996 RMK A01 T02000156  RH  076%=      5-min Rain = 0
KPD3 121219Z 27002KT 20/16 A2996 RMK A01 T02000156  RH  076%=      5-min Rain = 0
KPD3 121220Z 26003KT 20/16 A2996 RMK A01 T02000156  RH  076%=      5-min Rain = 0
KPD3 121221Z 26002KT 20/16 A2996 RMK A01 T01990156  RH  076%=      5-min Rain = 0
KPD3 121222Z 26002KT 20/16 A2995 RMK A01 T01990155  RH  076%=      5-min Rain = 0
KPD3 121223Z 26003KT 20/16 A2996 RMK A01 T01990156  RH  076%=      5-min Rain = 0
KPD3 121224Z 26003KT 20/16 A2996 RMK A01 T01980156  RH  076%=      5-min Rain = 0
KPD3 121225Z 27003KT 20/16 A2996 RMK A01 T01990156  RH  076%=      5-min Rain = 0
KPD3 121226Z 27003KT 20/16 A2996 RMK A01 T01990156  RH  076%=      5-min Rain = 0
KPD3 121227Z 27002KT 20/16 A2996 RMK A01 T01990156  RH  076%=      5-min Rain = 0
KPD3 121228Z 28002KT 20/16 A2996 RMK A01 T01990157  RH  076%=      5-min Rain = 0
KPD3 121229Z 28002KT 20/16 A2996 RMK A01 T02000157  RH  076%=      5-min Rain = 0
KPD3 121230Z 28002KT 20/16 A2996 RMK A01 T02010158  RH  076%=      5-min Rain = 0
KPD3 121231Z 28002KT 20/16 A2996 RMK A01 T02020158  RH  076%=      5-min Rain = 0
KPD3 121232Z 28002KT 20/16 A2996 RMK A01 T02020157  RH  075%=      5-min Rain = 0
KPD3 121233Z 28002KT 20/16 A2996 RMK A01 T02030158  RH  075%=      5-min Rain = 0
KPD3 121234Z 28002KT 20/16 A2996 RMK A01 T02040159  RH  075%=      5-min Rain = 0
KPD3 121235Z 29002KT 20/16 A2996 RMK A01 T02040159  RH  075%=      5-min Rain = 0
KPD3 121236Z 28003KT 21/16 A2996 RMK A01 T02050159  RH  075%=      5-min Rain = 0
KPD3 121237Z 29003KT 21/16 A2996 RMK A01 T02060160  RH  075%=      5-min Rain = 0
KPD3 121238Z 30002KT 21/16 A2996 RMK A01 T02070160  RH  075%=      5-min Rain = 0
KPD3 121239Z 30002KT 21/16 A2996 RMK A01 T02070160  RH  074%=      5-min Rain = 0
KPD3 121240Z 30001KT 21/16 A2996 RMK A01 T02090160  RH  074%=      5-min Rain = 0
KPD3 121241Z 30001KT 21/16 A2996 RMK A01 T02100160  RH  073%=      5-min Rain = 0
KPD3 121242Z 30001KT 21/16 A2996 RMK A01 T02120161  RH  072%=      5-min Rain = 0
KPD3 121243Z 30001KT 21/16 A2996 RMK A01 T02140161  RH  072%=      5-min Rain = 0
KPD3 121244Z 30001KT 22/16 A2996 RMK A01 T02170162  RH  071%=      5-min Rain = 0
KPD3 121245Z 31001KT 22/16 A2996 RMK A01 T02190162  RH  070%=      5-min Rain = 0
KPD3 121246Z 30002KT 22/16 A2996 RMK A01 T02210162  RH  069%=      5-min Rain = 0
KPD3 121247Z 30002KT 22/16 A2996 RMK A01 T02220162  RH  069%=      5-min Rain = 0
KPD3 121248Z 30002KT 22/16 A2996 RMK A01 T02230162  RH  068%=      5-min Rain = 0
KPD3 121249Z 31002KT 23/16 A2996 RMK A01 T02250164  RH  068%=      5-min Rain = 0
KPD3 121250Z 31002KT 23/16 A2996 RMK A01 T02260163  RH  068%=      5-min Rain = 0
KPD3 121251Z 31003KT 23/16 A2996 RMK A01 T02260164  RH  068%=      5-min Rain = 0
KPD3 121252Z 31002KT 23/16 A2996 RMK A01 T02270164  RH  068%=      5-min Rain = 0
KPD3 121253Z 31002KT 23/17 A2996 RMK A01 T02280165  RH  067%=      5-min Rain = 0
KPD3 121254Z 31001KT 23/17 A2996 RMK A01 T02290165  RH  067%=      5-min Rain = 0
KPD3 121255Z 31001KT 23/17 A2996 RMK A01 T02300165  RH  067%=      5-min Rain = 0
KPD3 121256Z 34000KT 23/17 A2996 RMK A01 T02310166  RH  067%=      5-min Rain = 0
KPD3 121257Z 35001KT 23/17 A2996 RMK A01 T02330165  RH  066%=      5-min Rain = 0
KPD3 121258Z 01000KT 24/17 A2996 RMK A01 T02350166  RH  065%=      5-min Rain = 0
KPD3 121259Z 03000KT 24/17 A2996 RMK A01 T02360166  RH  065%=      5-min Rain = 0
KPD3 121300Z 07000KT 24/17 A2996 RMK A01 T02380167  RH  064%=      5-min Rain = 0
KPD3 121301Z 08001KT 24/17 A2996 RMK A01 T02390168  RH  064%=      5-min Rain = 0
KPD3 121302Z 08001KT 24/17 A2996 RMK A01 T02400168  RH  064%=      5-min Rain = 0
KPD3 121303Z 08001KT 24/17 A2996 RMK A01 T02410167  RH  064%=      5-min Rain = 0
KPD3 121304Z 10001KT 24/17 A2996 RMK A01 T02400166  RH  063%=      5-min Rain = 0
KPD3 121305Z 11000KT 24/17 A2996 RMK A01 T02410167  RH  063%=      5-min Rain = 0
KPD3 121306Z 00000KT 24/17 A2996 RMK A01 T02430167  RH  062%=      5-min Rain = 0
KPD3 121307Z 06000KT 25/17 A2996 RMK A01 T02450168  RH  062%=      5-min Rain = 0
KPD3 121308Z 07000KT 25/17 A2996 RMK A01 T02470168  RH  062%=      5-min Rain = 0
KPD3 121309Z 08001KT 25/17 A2996 RMK A01 T02480168  RH  061%=      5-min Rain = 0
KPD3 121310Z 08001KT 25/17 A2996 RMK A01 T02490169  RH  061%=      5-min Rain = 0
KPD3 121311Z 00000KT 25/17 A2996 RMK A01 T02500169  RH  061%=      5-min Rain = 0
KPD3 121312Z 08000KT 25/17 A2996 RMK A01 T02520168  RH  060%=      5-min Rain = 0
KPD3 121313Z 08000KT 25/17 A2996 RMK A01 T02530168  RH  059%=      5-min Rain = 0
KPD3 121314Z 09001KT 25/17 A2996 RMK A01 T02540168  RH  059%=      5-min Rain = 0
KPD3 121315Z 09001KT 26/17 A2996 RMK A01 T02560168  RH  058%=      5-min Rain = 0
KPD3 121316Z 10001KT 26/17 A2996 RMK A01 T02570168  RH  058%=      5-min Rain = 0
KPD3 121317Z 11000KT 26/17 A2996 RMK A01 T02580168  RH  057%=      5-min Rain = 0
KPD3 121318Z 13000KT 26/17 A2996 RMK A01 T02600168  RH  057%=      5-min Rain = 0
KPD3 121319Z 00000KT 26/17 A2996 RMK A01 T02610169  RH  057%=      5-min Rain = 0
KPD3 121320Z 00000KT 26/17 A2996 RMK A01 T02630168  RH  056%=      5-min Rain = 0
KPD3 121321Z 00000KT 27/17 A2996 RMK A01 T02650169  RH  055%=      5-min Rain = 0
KPD3 121322Z 35000KT 27/17 A2996 RMK A01 T02670169  RH  055%=      5-min Rain = 0
KPD3 121323Z 04001KT 27/17 A2996 RMK A01 T02680169  RH  055%=      5-min Rain = 0
KPD3 121324Z 03000KT 27/17 A2996 RMK A01 T02670168  RH  054%=      5-min Rain = 0
KPD3 121325Z 35000KT 27/17 A2996 RMK A01 T02670168  RH  054%=      5-min Rain = 0
KPD3 121326Z 03000KT 27/17 A2996 RMK A01 T02680169  RH  055%=      5-min Rain = 0
KPD3 121327Z 27001KT 27/17 A2996 RMK A01 T02690167  RH  054%=      5-min Rain = 0
KPD3 121328Z 26001KT 27/17 A2996 RMK A01 T02700168  RH  054%=      5-min Rain = 0
KPD3 121329Z 23003KT 27/17 A2996 RMK A01 T02700167  RH  053%=      5-min Rain = 0
KPD3 121330Z 24005KT 27/16 A2996 RMK A01 T02720162  RH  051%=      5-min Rain = 0
KPD3 121331Z 24006KT 27/16 A2996 RMK A01 T02740157  RH  049%=      5-min Rain = 0
KPD3 121332Z 24005KT 28/16 A2996 RMK A01 T02760157  RH  048%=      5-min Rain = 0
KPD3 121333Z 23004KT 28/16 A2996 RMK A01 T02770157  RH  048%=      5-min Rain = 0
KPD3 121334Z 23004KT 28/16 A2996 RMK A01 T02780159  RH  048%=      5-min Rain = 0
KPD3 121335Z 24005KT 28/16 A2996 RMK A01 T02800158  RH  047%=      5-min Rain = 0
KPD3 121336Z 24004KT 28/16 A2996 RMK A01 T02800157  RH  047%=      5-min Rain = 0
KPD3 121337Z 23005KT 28/16 A2996 RMK A01 T02810157  RH  047%=      5-min Rain = 0
KPD3 121338Z 23006KT 28/16 A2996 RMK A01 T02820155  RH  046%=      5-min Rain = 0
KPD3 121339Z 23006KT 28/16 A2996 RMK A01 T02820155  RH  046%=      5-min Rain = 0
KPD3 121340Z 23006KT 28/16 A2996 RMK A01 T02830155  RH  046%=      5-min Rain = 0
KPD3 121341Z 23005KT 28/16 A2996 RMK A01 T02830155  RH  046%=      5-min Rain = 0
KPD3 121342Z 23006KT 28/16 A2996 RMK A01 T02830156  RH  046%=      5-min Rain = 0
KPD3 121343Z 24006KT 28/15 A2996 RMK A01 T02830154  RH  045%=      5-min Rain = 0
KPD3 121344Z 24006KT 28/15 A2996 RMK A01 T02840153  RH  045%=      5-min Rain = 0
KPD3 121345Z 24006KT 28/15 A2996 RMK A01 T02840154  RH  045%=      5-min Rain = 0
KPD3 121346Z 24007KT 29/15 A2996 RMK A01 T02860154  RH  045%=      5-min Rain = 0
KPD3 121347Z 25007KT 29/15 A2996 RMK A01 T02870152  RH  044%=      5-min Rain = 0
KPD3 121348Z 23007KT 29/15 A2996 RMK A01 T02870153  RH  044%=      5-min Rain = 0
KPD3 121349Z 22009KT 29/15 A2996 RMK A01 T02870153  RH  044%=      5-min Rain = 0
KPD3 121350Z 23009KT 29/15 A2996 RMK A01 T02870152  RH  044%=      5-min Rain = 0
KPD3 121351Z 23009KT 29/15 A2996 RMK A01 T02880151  RH  043%=      5-min Rain = 0
KPD3 121352Z 23009KT 29/15 A2996 RMK A01 T02880151  RH  043%=      5-min Rain = 0
KPD3 121353Z 24007KT 29/15 A2996 RMK A01 T02880152  RH  043%=      5-min Rain = 0
KPD3 121354Z 23007KT 29/15 A2996 RMK A01 T02900153  RH  043%=      5-min Rain = 0
KPD3 121355Z 23007KT 29/15 A2996 RMK A01 T02910152  RH  043%=      5-min Rain = 0
KPD3 121356Z 22007KT 29/15 A2996 RMK A01 T02910152  RH  043%=      5-min Rain = 0
KPD3 121357Z 22005KT 29/15 A2996 RMK A01 T02920153  RH  043%=      5-min Rain = 0
KPD3 121358Z 21007KT 29/15 A2996 RMK A01 T02930153  RH  043%=      5-min Rain = 0
KPD3 121359Z 22008KT 29/15 A2996 RMK A01 T02940152  RH  042%=      5-min Rain = 0
KPD3 121400Z 22005KT 29/15 A2996 RMK A01 T02940153  RH  042%=      5-min Rain = 0
KPD3 121401Z 22008KT 29/15 A2996 RMK A01 T02940153  RH  042%=      5-min Rain = 0
KPD3 121402Z 22007KT 29/15 A2996 RMK A01 T02940152  RH  042%=      5-min Rain = 0
KPD3 121403Z 23006KT 29/15 A2996 RMK A01 T02940152  RH  042%=      5-min Rain = 0
KPD3 121404Z 23008KT 30/15 A2996 RMK A01 T02950153  RH  042%=      5-min Rain = 0
KPD3 121405Z 23009KT 30/15 A2996 RMK A01 T02960153  RH  042%=      5-min Rain = 0
KPD3 121406Z 22008KT 30/15 A2996 RMK A01 T02960152  RH  042%=      5-min Rain = 0
KPD3 121407Z 22009KT 30/15 A2996 RMK A01 T02950152  RH  042%=      5-min Rain = 0
KPD3 121408Z 23006KT 30/15 A2996 RMK A01 T02950152  RH  042%=      5-min Rain = 0
KPD3 121409Z 24007KT 30/15 A2996 RMK A01 T02950152  RH  042%=      5-min Rain = 0
KPD3 121410Z 24009KT 30/15 A2996 RMK A01 T02970153  RH  042%=      5-min Rain = 0
KPD3 121411Z 24011KT 30/15 A2996 RMK A01 T02980153  RH  041%=      5-min Rain = 0
KPD3 121412Z 24010KT 30/15 A2996 RMK A01 T02980153  RH  041%=      5-min Rain = 0
KPD3 121413Z 22009KT 30/15 A2996 RMK A01 T02980154  RH  042%=      5-min Rain = 0
KPD3 121414Z 22009KT 30/15 A2996 RMK A01 T02990154  RH  041%=      5-min Rain = 0
KPD3 121415Z 24007KT 30/15 A2996 RMK A01 T03010154  RH  041%=      5-min Rain = 0
KPD3 121416Z 23007KT 30/16 A2996 RMK A01 T03040155  RH  041%=      5-min Rain = 0
KPD3 121417Z 23008KT 31/16 A2996 RMK A01 T03050155  RH  040%=      5-min Rain = 0
KPD3 121418Z 23010KT 31/16 A2996 RMK A01 T03070155  RH  040%=      5-min Rain = 0
KPD3 121419Z 24009KT 31/15 A2996 RMK A01 T03050153  RH  040%=      5-min Rain = 0
KPD3 121420Z 23009KT 30/15 A2996 RMK A01 T03020153  RH  040%=      5-min Rain = 0
KPD3 121421Z 23008KT 30/15 A2996 RMK A01 T03030154  RH  041%=      5-min Rain = 0
KPD3 121422Z 22009KT 30/15 A2996 RMK A01 T03040154  RH  040%=      5-min Rain = 0
KPD3 121423Z 23010KT 30/15 A2996 RMK A01 T03040154  RH  040%=      5-min Rain = 0
KPD3 121424Z 22010KT 30/15 A2996 RMK A01 T03040154  RH  040%=      5-min Rain = 0
KPD3 121425Z 24011KT 31/16 A2996 RMK A01 T03050155  RH  040%=      5-min Rain = 0
KPD3 121426Z 22011KT 31/16 A2996 RMK A01 T03050155  RH  040%=      5-min Rain = 0
KPD3 121427Z 22013KT 31/16 A2996 RMK A01 T03050155  RH  040%=      5-min Rain = 0
KPD3 121428Z 22011KT 31/16 A2996 RMK A01 T03060155  RH  040%=      5-min Rain = 0
KPD3 121429Z 22013KT 31/16 A2996 RMK A01 T03060156  RH  040%=      5-min Rain = 0
KPD3 121430Z 23010KT 31/16 A2996 RMK A01 T03070156  RH  040%=      5-min Rain = 0
KPD3 121431Z 22009KT 31/16 A2996 RMK A01 T03070156  RH  040%=      5-min Rain = 0
KPD3 121432Z 22008KT 31/16 A2996 RMK A01 T03060156  RH  040%=      5-min Rain = 0
KPD3 121433Z 23010KT 31/16 A2996 RMK A01 T03090157  RH  040%=      5-min Rain = 0
KPD3 121434Z 24009KT 31/16 A2996 RMK A01 T03100157  RH  040%=      5-min Rain = 0
KPD3 121435Z 23010KT 31/16 A2996 RMK A01 T03100157  RH  040%=      5-min Rain = 0
KPD3 121436Z 22009KT 31/16 A2996 RMK A01 T03100157  RH  040%=      5-min Rain = 0
KPD3 121437Z 22010KT 31/16 A2996 RMK A01 T03120158  RH  039%=      5-min Rain = 0
KPD3 121438Z 23010KT 31/16 A2996 RMK A01 T03140158  RH  039%=      5-min Rain = 0
KPD3 121439Z 22012KT 31/16 A2996 RMK A01 T03130157  RH  039%=      5-min Rain = 0
KPD3 121440Z 22012KT 31/16 A2996 RMK A01 T03120157  RH  039%=      5-min Rain = 0
KPD3 121441Z 23012KT 31/16 A2996 RMK A01 T03120157  RH  039%=      5-min Rain = 0
KPD3 121442Z 22009KT 31/16 A2996 RMK A01 T03130158  RH  039%=      5-min Rain = 0
KPD3 121443Z 22011KT 32/16 A2996 RMK A01 T03160158  RH  039%=      5-min Rain = 0
KPD3 121444Z 22011KT 32/16 A2996 RMK A01 T03170157  RH  038%=      5-min Rain = 0
KPD3 121445Z 23008KT 32/16 A2996 RMK A01 T03160157  RH  038%=      5-min Rain = 0
KPD3 121446Z 22010KT 32/16 A2996 RMK A01 T03160158  RH  039%=      5-min Rain = 0
KPD3 121447Z 24008KT 32/16 A2996 RMK A01 T03170158  RH  038%=      5-min Rain = 0
KPD3 121448Z 22011G17KT 32/16 A2996 RMK A01 T03180158  RH  038%=      5-min Rain = 0
KPD3 121449Z 21013KT 32/16 A2996 RMK A01 T03190157  RH  038%=      5-min Rain = 0
KPD3 121450Z 21013KT 32/16 A2996 RMK A01 T03190157  RH  038%=      5-min Rain = 0
KPD3 121451Z 22010KT 32/16 A2996 RMK A01 T03190157  RH  038%=      5-min Rain = 0
KPD3 121452Z 22008KT 32/16 A2996 RMK A01 T03170157  RH  038%=      5-min Rain = 0
KPD3 121453Z 21009KT 32/16 A2996 RMK A01 T03190158  RH  038%=      5-min Rain = 0
KPD3 121454Z 21008KT 32/16 A2995 RMK A01 T03220159  RH  037%=      5-min Rain = 0
KPD3 121455Z 23009KT 32/16 A2995 RMK A01 T03240159  RH  037%=      5-min Rain = 0
KPD3 121456Z 22007KT 32/16 A2995 RMK A01 T03240159  RH  037%=      5-min Rain = 0
KPD3 121457Z 22011KT 32/16 A2995 RMK A01 T03240159  RH  037%=      5-min Rain = 0
KPD3 121458Z 22011KT 33/16 A2995 RMK A01 T03260158  RH  036%=      5-min Rain = 0
KPD3 121459Z 22011KT 33/16 A2995 RMK A01 T03260159  RH  037%=      5-min Rain = 0
KPD3 121500Z 21010KT 33/16 A2995 RMK A01 T03250157  RH  036%=      5-min Rain = 0
KPD3 121501Z 23011KT 33/16 A2995 RMK A01 T03250158  RH  037%=      5-min Rain = 0
KPD3 121502Z 22011KT 33/16 A2995 RMK A01 T03250158  RH  037%=      5-min Rain = 0
KPD3 121503Z 21010KT 33/16 A2995 RMK A01 T03260159  RH  037%=      5-min Rain = 0
KPD3 121504Z 22010G15KT 33/16 A2995 RMK A01 T03270159  RH  036%=      5-min Rain = 0
KPD3 121505Z 21012KT 33/16 A2995 RMK A01 T03290159  RH  036%=      5-min Rain = 0
KPD3 121506Z 22012KT 33/16 A2995 RMK A01 T03290158  RH  036%=      5-min Rain = 0
KPD3 121507Z 21010KT 33/16 A2995 RMK A01 T03270158  RH  036%=      5-min Rain = 0
KPD3 121508Z 22011KT 33/16 A2995 RMK A01 T03280159  RH  036%=      5-min Rain = 0
KPD3 121509Z 22011KT 33/16 A2995 RMK A01 T03280159  RH  036%=      5-min Rain = 0
KPD3 121510Z 22010KT 33/16 A2995 RMK A01 T03280159  RH  036%=      5-min Rain = 0
KPD3 121511Z 22010KT 33/16 A2995 RMK A01 T03280158  RH  036%=      5-min Rain = 0
KPD3 121512Z 20011KT 33/16 A2995 RMK A01 T03280159  RH  036%=      5-min Rain = 0
KPD3 121513Z 20011KT 33/16 A2995 RMK A01 T03290158  RH  036%=      5-min Rain = 0
KPD3 121514Z 22011KT 33/16 A2995 RMK A01 T03280159  RH  036%=      5-min Rain = 0
KPD3 121515Z 21012KT 33/16 A2995 RMK A01 T03310160  RH  036%=      5-min Rain = 0
KPD3 121516Z 22011KT 33/16 A2995 RMK A01 T03310159  RH  036%=      5-min Rain = 0
KPD3 121517Z 22010KT 33/16 A2995 RMK A01 T03300159  RH  036%=      5-min Rain = 0
KPD3 121518Z 22010KT 33/16 A2995 RMK A01 T03300159  RH  036%=      5-min Rain = 0
KPD3 121519Z 22009KT 33/16 A2995 RMK A01 T03300159  RH  036%=      5-min Rain = 0
KPD3 121520Z 22009KT 33/16 A2995 RMK A01 T03310160  RH  036%=      5-min Rain = 0
KPD3 121521Z 22010KT 33/16 A2995 RMK A01 T03330159  RH  035%=      5-min Rain = 0
KPD3 121522Z 23009KT 33/16 A2995 RMK A01 T03320159  RH  036%=      5-min Rain = 0
KPD3 121523Z 24010KT 33/16 A2995 RMK A01 T03320160  RH  036%=      5-min Rain = 0
KPD3 121524Z 23010KT 33/16 A2995 RMK A01 T03320160  RH  036%=      5-min Rain = 0
KPD3 121525Z 21011KT 33/16 A2995 RMK A01 T03320159  RH  035%=      5-min Rain = 0
KPD3 121526Z 22008KT 33/16 A2995 RMK A01 T03310159  RH  036%=      5-min Rain = 0
KPD3 121527Z 22008KT 33/16 A2995 RMK A01 T03300159  RH  036%=      5-min Rain = 0
KPD3 121528Z 22007KT 33/16 A2995 RMK A01 T03300159  RH  036%=      5-min Rain = 0
KPD3 121529Z 21006KT 33/16 A2995 RMK A01 T03310160  RH  036%=      5-min Rain = 0
KPD3 121530Z 21007KT 33/16 A2995 RMK A01 T03340161  RH  036%=      5-min Rain = 0
KPD3 121531Z 23007KT 34/16 A2995 RMK A01 T03350161  RH  035%=      5-min Rain = 0
KPD3 121532Z 23007KT 34/16 A2995 RMK A01 T03360160  RH  035%=      5-min Rain = 0
KPD3 121533Z 25008KT 34/16 A2995 RMK A01 T03350160  RH  035%=      5-min Rain = 0
KPD3 121534Z 20008KT 34/16 A2995 RMK A01 T03360162  RH  035%=      5-min Rain = 0
KPD3 121535Z 20008KT 34/16 A2995 RMK A01 T03390162  RH  035%=      5-min Rain = 0
KPD3 121536Z 23007KT 34/16 A2995 RMK A01 T03420162  RH  034%=      5-min Rain = 0
KPD3 121537Z 20006KT 34/16 A2995 RMK A01 T03410162  RH  034%=      5-min Rain = 0
KPD3 121538Z 20004KT 34/16 A2995 RMK A01 T03410162  RH  034%=      5-min Rain = 0
KPD3 121539Z 22005G12KT 34/16 A2995 RMK A01 T03430163  RH  034%=      5-min Rain = 0
KPD3 121540Z 21011KT 34/16 A2995 RMK A01 T03440161  RH  034%=      5-min Rain = 0
KPD3 121541Z 20008KT 34/16 A2995 RMK A01 T03420161  RH  034%=      5-min Rain = 0
KPD3 121542Z 20008KT 34/16 A2995 RMK A01 T03420162  RH  034%=      5-min Rain = 0
KPD3 121543Z 21006KT 34/16 A2995 RMK A01 T03400161  RH  034%=      5-min Rain = 0
KPD3 121544Z 22007KT 34/16 A2995 RMK A01 T03410162  RH  034%=      5-min Rain = 0
KPD3 121545Z 25008KT 34/16 A2995 RMK A01 T03430162  RH  034%=      5-min Rain = 0
KPD3 121546Z 21007KT 34/16 A2995 RMK A01 T03410162  RH  034%=      5-min Rain = 0
KPD3 121547Z 22009KT 34/16 A2995 RMK A01 T03420163  RH  034%=      5-min Rain = 0
KPD3 121548Z 24008KT 35/16 A2995 RMK A01 T03450162  RH  034%=      5-min Rain = 0
KPD3 121549Z 23007KT 34/16 A2995 RMK A01 T03420161  RH  034%=      5-min Rain = 0
KPD3 121550Z 24005KT 34/16 A2995 RMK A01 T03410162  RH  035%=      5-min Rain = 0
KPD3 121551Z 24004KT 34/16 A2995 RMK A01 T03430162  RH  034%=      5-min Rain = 0
KPD3 121552Z 24002KT 34/16 A2995 RMK A01 T03430164  RH  034%=      5-min Rain = 0
KPD3 121553Z 24002KT 35/17 A2995 RMK A01 T03450166  RH  034%=      5-min Rain = 0
KPD3 121554Z 24003KT 35/17 A2995 RMK A01 T03480165  RH  034%=      5-min Rain = 0
KPD3 121555Z 26002KT 35/17 A2995 RMK A01 T03490166  RH  034%=      5-min Rain = 0
KPD3 121556Z 24005KT 35/16 A2995 RMK A01 T03500164  RH  033%=      5-min Rain = 0
KPD3 121557Z 23006KT 35/16 A2995 RMK A01 T03490163  RH  033%=      5-min Rain = 0
KPD3 121558Z 22010G15KT 35/16 A2995 RMK A01 T03490163  RH  033%=      5-min Rain = 0
KPD3 121559Z 22009KT 35/16 A2995 RMK A01 T03510163  RH  033%=      5-min Rain = 0
KPD3 121600Z 25007KT 35/16 A2995 RMK A01 T03520163  RH  033%=      5-min Rain = 0
KPD3 121601Z 26007KT 35/16 A2995 RMK A01 T03510163  RH  033%=      5-min Rain = 0
KPD3 121602Z 22009KT 35/16 A2995 RMK A01 T03510163  RH  033%=      5-min Rain = 0
KPD3 121603Z 20009KT 35/16 A2995 RMK A01 T03520163  RH  033%=      5-min Rain = 0
KPD3 121604Z 20007KT 35/16 A2995 RMK A01 T03510162  RH  033%=      5-min Rain = 0
KPD3 121605Z 19006KT 35/16 A2995 RMK A01 T03490162  RH  033%=      5-min Rain = 0
KPD3 121606Z 21006KT 35/16 A2995 RMK A01 T03520163  RH  033%=      5-min Rain = 0
KPD3 121607Z 22012KT 36/16 A2995 RMK A01 T03550163  RH  032%=      5-min Rain = 0
KPD3 121608Z 22010KT 36/16 A2995 RMK A01 T03570162  RH  032%=      5-min Rain = 0
KPD3 121609Z 24007KT 36/16 A2995 RMK A01 T03550161  RH  032%=      5-min Rain = 0
KPD3 121610Z 21008KT 35/16 A2995 RMK A01 T03530163  RH  032%=      5-min Rain = 0
KPD3 121611Z 21009KT 36/16 A2995 RMK A01 T03580164  RH  032%=      5-min Rain = 0
KPD3 121612Z 21007KT 36/16 A2995 RMK A01 T03610163  RH  031%=      5-min Rain = 0
KPD3 121613Z 21009KT 36/16 A2995 RMK A01 T03610163  RH  031%=      5-min Rain = 0
KPD3 121614Z 21008KT 36/16 A2995 RMK A01 T03590162  RH  031%=      5-min Rain = 0
KPD3 121615Z 20009KT 36/16 A2995 RMK A01 T03580163  RH  031%=      5-min Rain = 0
KPD3 121616Z 19006KT 36/16 A2995 RMK A01 T03580163  RH  031%=      5-min Rain = 0
KPD3 121617Z 25006KT 36/16 A2995 RMK A01 T03570163  RH  032%=      5-min Rain = 0
KPD3 121618Z 25007KT 36/16 A2995 RMK A01 T03580163  RH  032%=      5-min Rain = 0
KPD3 121619Z 25004KT 36/16 A2995 RMK A01 T03580164  RH  032%=      5-min Rain = 0
KPD3 121620Z 25006KT 36/16 A2995 RMK A01 T03570164  RH  032%=      5-min Rain = 0
KPD3 121621Z 26007KT 36/16 A2995 RMK A01 T03580162  RH  031%=      5-min Rain = 0
KPD3 121622Z 25005KT 36/16 A2995 RMK A01 T03570163  RH  032%=      5-min Rain = 0
KPD3 121623Z 22008KT 36/16 A2995 RMK A01 T03580163  RH  031%=      5-min Rain = 0
KPD3 121624Z 19008KT 36/16 A2995 RMK A01 T03590161  RH  031%=      5-min Rain = 0
KPD3 121625Z 19008KT 36/16 A2995 RMK A01 T03610161  RH  031%=      5-min Rain = 0
KPD3 121626Z 19004KT 36/16 A2995 RMK A01 T03620161  RH  030%=      5-min Rain = 0
KPD3 121627Z 16004KT 36/16 A2995 RMK A01 T03640162  RH  030%=      5-min Rain = 0
KPD3 121628Z 15003KT 37/16 A2995 RMK A01 T03650161  RH  030%=      5-min Rain = 0
KPD3 121629Z 18005KT 37/16 A2995 RMK A01 T03650162  RH  030%=      5-min Rain = 0
KPD3 121630Z 21009KT 37/16 A2995 RMK A01 T03660163  RH  030%=      5-min Rain = 0
KPD3 121631Z 21007KT 37/16 A2995 RMK A01 T03710163  RH  029%=      5-min Rain = 0
KPD3 121632Z 22006G11KT 37/16 A2995 RMK A01 T03720162  RH  029%=      5-min Rain = 0
KPD3 121633Z 18010KT 37/16 A2995 RMK A01 T03700161  RH  029%=      5-min Rain = 0
KPD3 121634Z 19010KT 37/16 A2995 RMK A01 T03690161  RH  029%=      5-min Rain = 0
KPD3 121635Z 18007KT 37/16 A2995 RMK A01 T03650160  RH  030%=      5-min Rain = 0
KPD3 121636Z 22007KT 36/16 A2995 RMK A01 T03640161  RH  030%=      5-min Rain = 0
KPD3 121637Z 24006KT 36/16 A2995 RMK A01 T03620160  RH  030%=      5-min Rain = 0
KPD3 121638Z 22003KT 36/16 A2995 RMK A01 T03590159  RH  030%=      5-min Rain = 0
KPD3 121639Z 19006KT 36/16 A2995 RMK A01 T03590160  RH  031%=      5-min Rain = 0
KPD3 121640Z 20010KT 36/16 A2995 RMK A01 T03640160  RH  030%=      5-min Rain = 0
KPD3 121641Z 18010KT 37/16 A2995 RMK A01 T03700160  RH  029%=      5-min Rain = 0
KPD3 121642Z 19010KT 37/16 A2995 RMK A01 T03720159  RH  028%=      5-min Rain = 0
KPD3 121643Z 19011KT 37/16 A2995 RMK A01 T03740160  RH  028%=      5-min Rain = 0
KPD3 121644Z 19008KT 38/16 A2995 RMK A01 T03760160  RH  028%=      5-min Rain = 0
KPD3 121645Z 20008KT 38/16 A2994 RMK A01 T03750160  RH  028%=      5-min Rain = 0
KPD3 121646Z 21010KT 38/16 A2994 RMK A01 T03750162  RH  028%=      5-min Rain = 0
KPD3 121647Z 20011KT 38/16 A2995 RMK A01 T03760160  RH  028%=      5-min Rain = 0
KPD3 121648Z 19008KT 38/16 A2995 RMK A01 T03760160  RH  028%=      5-min Rain = 0
KPD3 121649Z 18006KT 37/16 A2995 RMK A01 T03710158  RH  028%=      5-min Rain = 0
KPD3 121650Z 19009KT 37/16 A2995 RMK A01 T03710158  RH  029%=      5-min Rain = 0
KPD3 121651Z 19010KT 37/16 A2995 RMK A01 T03740158  RH  028%=      5-min Rain = 0
KPD3 121652Z 20009KT 38/16 A2995 RMK A01 T03750159  RH  028%=      5-min Rain = 0
KPD3 121653Z 22009KT 37/16 A2995 RMK A01 T03730158  RH  028%=      5-min Rain = 0
KPD3 121654Z 22008KT 37/16 A2994 RMK A01 T03700157  RH  028%=      5-min Rain = 0
KPD3 121655Z 21006KT 37/16 A2994 RMK A01 T03680157  RH  029%=      5-min Rain = 0
KPD3 121656Z 22007KT 37/16 A2994 RMK A01 T03690158  RH  029%=      5-min Rain = 0
KPD3 121657Z 17005KT 37/16 A2994 RMK A01 T03720160  RH  029%=      5-min Rain = 0
KPD3 121658Z 19005KT 38/16 A2994 RMK A01 T03750163  RH  029%=      5-min Rain = 0
KPD3 121659Z 20006KT 38/16 A2994 RMK A01 T03760160  RH  028%=      5-min Rain = 0
KPD3 121700Z 18006KT 38/16 A2994 RMK A01 T03750162  RH  028%=      5-min Rain = 0
KPD3 121701Z 17008KT 38/16 A2994 RMK A01 T03770161  RH  028%=      5-min Rain = 0
KPD3 121702Z 18010KT 38/16 A2994 RMK A01 T03770159  RH  028%=      5-min Rain = 0
KPD3 121703Z 18008KT 37/16 A2994 RMK A01 T03740159  RH  028%=      5-min Rain = 0
KPD3 121704Z 18009KT 37/16 A2994 RMK A01 T03740159  RH  028%=      5-min Rain = 0
KPD3 121705Z 16009KT 38/16 A2994 RMK A01 T03770160  RH  028%=      5-min Rain = 0
KPD3 121706Z 16009KT 38/16 A2994 RMK A01 T03790160  RH  028%=      5-min Rain = 0
KPD3 121707Z 16008KT 38/16 A2994 RMK A01 T03790160  RH  028%=      5-min Rain = 0
KPD3 121708Z 17004KT 38/16 A2994 RMK A01 T03770161  RH  028%=      5-min Rain = 0
KPD3 121709Z 21006KT 38/16 A2994 RMK A01 T03760160  RH  028%=      5-min Rain = 0
KPD3 121710Z 19006KT 38/16 A2994 RMK A01 T03770159  RH  028%=      5-min Rain = 0
KPD3 121711Z 21006KT 38/16 A2994 RMK A01 T03760158  RH  028%=      5-min Rain = 0
KPD3 121712Z 19007KT 38/16 A2994 RMK A01 T03750157  RH  028%=      5-min Rain = 0
KPD3 121713Z 19004KT 37/16 A2994 RMK A01 T03740158  RH  028%=      5-min Rain = 0
KPD3 121714Z 16010KT 38/16 A2994 RMK A01 T03770159  RH  028%=      5-min Rain = 0
KPD3 121715Z 17009KT 38/16 A2994 RMK A01 T03780159  RH  028%=      5-min Rain = 0
KPD3 121716Z 16008KT 38/16 A2994 RMK A01 T03780160  RH  028%=      5-min Rain = 0
KPD3 121717Z 15007KT 38/16 A2994 RMK A01 T03790160  RH  027%=      5-min Rain = 0
KPD3 121718Z 15006KT 38/16 A2994 RMK A01 T03790160  RH  028%=      5-min Rain = 0
KPD3 121719Z 16009KT 38/16 A2994 RMK A01 T03770159  RH  028%=      5-min Rain = 0
KPD3 121720Z 16007KT 38/16 A2994 RMK A01 T03770158  RH  027%=      5-min Rain = 0
KPD3 121721Z 19008KT 38/16 A2994 RMK A01 T03770158  RH  027%=      5-min Rain = 0
KPD3 121722Z 21005KT 38/16 A2994 RMK A01 T03770156  RH  027%=      5-min Rain = 0
KPD3 121723Z 19003KT 38/16 A2994 RMK A01 T03750156  RH  027%=      5-min Rain = 0
KPD3 121724Z 15003KT 37/16 A2994 RMK A01 T03740157  RH  028%=      5-min Rain = 0
KPD3 121725Z 19009KT 37/16 A2994 RMK A01 T03740158  RH  028%=      5-min Rain = 0
KPD3 121726Z 18009KT 38/16 A2994 RMK A01 T03820156  RH  027%=      5-min Rain = 0
KPD3 121727Z 18007KT 38/16 A2994 RMK A01 T03820155  RH  026%=      5-min Rain = 0
KPD3 121728Z 18005KT 38/15 A2994 RMK A01 T03810153  RH  026%=      5-min Rain = 0
KPD3 121729Z 16012KT 38/15 A2994 RMK A01 T03800153  RH  026%=      5-min Rain = 0
KPD3 121730Z 17011KT 38/16 A2994 RMK A01 T03830156  RH  026%=      5-min Rain = 0
KPD3 121731Z 17010KT 39/16 A2994 RMK A01 T03850157  RH  026%=      5-min Rain = 0
KPD3 121732Z 19009KT 39/16 A2994 RMK A01 T03860158  RH  026%=      5-min Rain = 0
KPD3 121733Z 18007KT 39/16 A2994 RMK A01 T03880156  RH  026%=      5-min Rain = 0
KPD3 121734Z 16008KT 39/16 A2994 RMK A01 T03860157  RH  026%=      5-min Rain = 0
KPD3 121735Z 15006KT 39/16 A2993 RMK A01 T03850156  RH  026%=      5-min Rain = 0
KPD3 121736Z 18007KT 38/16 A2993 RMK A01 T03840156  RH  026%=      5-min Rain = 0
KPD3 121737Z 21008KT 38/16 A2994 RMK A01 T03820155  RH  026%=      5-min Rain = 0
KPD3 121738Z 22009KT 38/16 A2994 RMK A01 T03810155  RH  026%=      5-min Rain = 0
KPD3 121739Z 19006KT 38/16 A2994 RMK A01 T03780156  RH  027%=      5-min Rain = 0
KPD3 121740Z 20002KT 38/16 A2994 RMK A01 T03750158  RH  028%=      5-min Rain = 0
KPD3 121741Z 30002KT 38/16 A2994 RMK A01 T03780161  RH  028%=      5-min Rain = 0
KPD3 121742Z 17005KT 38/16 A2993 RMK A01 T03810159  RH  027%=      5-min Rain = 0
KPD3 121743Z 16004KT 39/16 A2993 RMK A01 T03850157  RH  026%=      5-min Rain = 0
KPD3 121744Z 18001KT 39/16 A2993 RMK A01 T03850159  RH  026%=      5-min Rain = 0
KPD3 121745Z 17006KT 39/16 A2994 RMK A01 T03870158  RH  026%=      5-min Rain = 0
KPD3 121746Z 18011G16KT 39/16 A2994 RMK A01 T03900156  RH  025%=      5-min Rain = 0
KPD3 121747Z 18010KT 39/16 A2994 RMK A01 T03920156  RH  025%=      5-min Rain = 0
KPD3 121748Z 18011KT 39/16 A2994 RMK A01 T03930156  RH  025%=      5-min Rain = 0
KPD3 121749Z 20008KT 39/16 A2993 RMK A01 T03910155  RH  025%=      5-min Rain = 0
KPD3 121750Z 19006KT 39/16 A2993 RMK A01 T03880155  RH  025%=      5-min Rain = 0
KPD3 121751Z 17009KT 38/15 A2993 RMK A01 T03840154  RH  026%=      5-min Rain = 0
KPD3 121752Z 16010KT 38/15 A2993 RMK A01 T03830151  RH  025%=      5-min Rain = 0
KPD3 121753Z 17011KT 38/15 A2993 RMK A01 T03820150  RH  025%=      5-min Rain = 0
KPD3 121754Z 17011KT 38/15 A2993 RMK A01 T03830150  RH  025%=      5-min Rain = 0
KPD3 121755Z 18010KT 38/15 A2993 RMK A01 T03830150  RH  025%=      5-min Rain = 0
KPD3 121756Z 18013KT 38/15 A2993 RMK A01 T03810149  RH  025%=      5-min Rain = 0
KPD3 121757Z 18010KT 38/15 A2993 RMK A01 T03800149  RH  026%=      5-min Rain = 0
KPD3 121758Z 20012KT 38/15 A2993 RMK A01 T03800150  RH  026%=      5-min Rain = 0
KPD3 121759Z 20015KT 38/15 A2993 RMK A01 T03790149  RH  026%=      5-min Rain = 0
KPD3 121800Z 21012KT 38/15 A2993 RMK A01 T03790147  RH  025%=      5-min Rain = 0
KPD3 121801Z 20014KT 38/15 A2993 RMK A01 T03810150  RH  026%=      5-min Rain = 0
KPD3 121802Z 21012KT 39/15 A2993 RMK A01 T03850151  RH  025%=      5-min Rain = 0
KPD3 121803Z 19011KT 39/15 A2993 RMK A01 T03900153  RH  025%=      5-min Rain = 0
KPD3 121804Z 21011KT 39/15 A2993 RMK A01 T03930151  RH  024%=      5-min Rain = 0
KPD3 121805Z 22011KT 39/15 A2993 RMK A01 T03890149  RH  024%=      5-min Rain = 0
KPD3 121806Z 20010KT 38/15 A2993 RMK A01 T03840149  RH  025%=      5-min Rain = 0
KPD3 121807Z 18011KT 38/15 A2993 RMK A01 T03810149  RH  025%=      5-min Rain = 0
KPD3 121808Z 20008G13KT 38/15 A2993 RMK A01 T03790150  RH  026%=      5-min Rain = 0
KPD3 121809Z 19006KT 38/15 A2993 RMK A01 T03770150  RH  026%=      5-min Rain = 0
KPD3 121810Z 16007KT 38/15 A2993 RMK A01 T03750150  RH  027%=      5-min Rain = 0
KPD3 121811Z 16008KT 38/15 A2993 RMK A01 T03760150  RH  026%=      5-min Rain = 0
KPD3 121812Z 19009G14KT 38/15 A2993 RMK A01 T03750150  RH  026%=      5-min Rain = 0
KPD3 121813Z 21012KT 38/15 A2993 RMK A01 T03800153  RH  026%=      5-min Rain = 0
KPD3 121814Z 20010KT 39/15 A2993 RMK A01 T03870152  RH  025%=      5-min Rain = 0
KPD3 121815Z 19012KT 40/15 A2993 RMK A01 T03960154  RH  024%=      5-min Rain = 0
KPD3 121816Z 19012KT 40/15 A2993 RMK A01 T03990152  RH  023%=      5-min Rain = 0
KPD3 121817Z 19012KT 40/15 A2993 RMK A01 T03950149  RH  024%=      5-min Rain = 0
KPD3 121818Z 19013KT 39/15 A2993 RMK A01 T03910150  RH  024%=      5-min Rain = 0
KPD3 121819Z 19009KT 39/15 A2992 RMK A01 T03870149  RH  025%=      5-min Rain = 0
KPD3 121820Z 19012KT 39/15 A2992 RMK A01 T03850152  RH  025%=      5-min Rain = 0
KPD3 121821Z 19015KT 39/15 A2993 RMK A01 T03870152  RH  025%=      5-min Rain = 0
KPD3 121822Z 20012KT 38/15 A2992 RMK A01 T03840150  RH  025%=      5-min Rain = 0
KPD3 121823Z 20009KT 38/15 A2992 RMK A01 T03830151  RH  025%=      5-min Rain = 0
KPD3 121824Z 22012KT 38/15 A2992 RMK A01 T03820151  RH  026%=      5-min Rain = 0
KPD3 121825Z 22009KT 38/15 A2992 RMK A01 T03810151  RH  026%=      5-min Rain = 0
KPD3 121826Z 18013G19KT 38/15 A2992 RMK A01 T03820151  RH  026%=      5-min Rain = 0
KPD3 121827Z 16015G21KT 39/15 A2992 RMK A01 T03860151  RH  025%=      5-min Rain = 0
KPD3 121828Z 18015KT 39/15 A2992 RMK A01 T03870151  RH  025%=      5-min Rain = 0
KPD3 121829Z 18013KT 38/15 A2992 RMK A01 T03840150  RH  025%=      5-min Rain = 0
KPD3 121830Z 17016KT 38/15 A2992 RMK A01 T03820151  RH  026%=      5-min Rain = 0
KPD3 121831Z 18014KT 38/15 A2992 RMK A01 T03800150  RH  026%=      5-min Rain = 0
KPD3 121832Z 19011KT 38/15 A2992 RMK A01 T03810151  RH  026%=      5-min Rain = 0
KPD3 121833Z 20009KT 39/15 A2992 RMK A01 T03860153  RH  025%=      5-min Rain = 0
KPD3 121834Z 18010KT 39/15 A2992 RMK A01 T03880153  RH  025%=      5-min Rain = 0
KPD3 121835Z 18012KT 39/15 A2992 RMK A01 T03890153  RH  025%=      5-min Rain = 0
KPD3 121836Z 18018KT 39/15 A2992 RMK A01 T03910152  RH  025%=      5-min Rain = 0
KPD3 121837Z 18016KT 39/15 A2992 RMK A01 T03910151  RH  024%=      5-min Rain = 0
KPD3 121838Z 18015KT 39/15 A2992 RMK A01 T03890151  RH  025%=      5-min Rain = 0
KPD3 121839Z 18015KT 39/15 A2992 RMK A01 T03930153  RH  024%=      5-min Rain = 0
KPD3 121840Z 17012KT 40/15 A2992 RMK A01 T03970151  RH  024%=      5-min Rain = 0
KPD3 121841Z 18011G18KT 40/15 A2992 RMK A01 T03970152  RH  024%=      5-min Rain = 0
KPD3 121842Z 20015G20KT 40/15 A2992 RMK A01 T03990153  RH  024%=      5-min Rain = 0
KPD3 121843Z 20010KT 40/15 A2992 RMK A01 T04000151  RH  023%=      5-min Rain = 0
KPD3 121844Z 20008KT 40/15 A2992 RMK A01 T03990150  RH  023%=      5-min Rain = 0
KPD3 121845Z 19009KT 39/15 A2992 RMK A01 T03940148  RH  024%=      5-min Rain = 0
KPD3 121846Z 19011KT 39/15 A2992 RMK A01 T03890149  RH  024%=      5-min Rain = 0
KPD3 121847Z 18012G17KT 39/15 A2992 RMK A01 T03860151  RH  025%=      5-min Rain = 0
KPD3 121848Z 16014G19KT 38/15 A2992 RMK A01 T03840149  RH  025%=      5-min Rain = 0
KPD3 121849Z 17014KT 38/15 A2991 RMK A01 T03830149  RH  025%=      5-min Rain = 0
KPD3 121850Z 17012KT 39/15 A2991 RMK A01 T03850151  RH  025%=      5-min Rain = 0
KPD3 121851Z 18013KT 39/15 A2991 RMK A01 T03900152  RH  025%=      5-min Rain = 0
KPD3 121852Z 20011KT 39/15 A2991 RMK A01 T03910152  RH  025%=      5-min Rain = 0
KPD3 121853Z 19009G14KT 40/15 A2991 RMK A01 T03960154  RH  024%=      5-min Rain = 0
KPD3 121854Z 19016G22KT 40/15 A2991 RMK A01 T04010153  RH  023%=      5-min Rain = 0
KPD3 121855Z 18017KT 40/15 A2991 RMK A01 T04030151  RH  023%=      5-min Rain = 0
KPD3 121856Z 20017G22KT 40/15 A2991 RMK A01 T04020151  RH  023%=      5-min Rain = 0
KPD3 121857Z 21011KT 40/15 A2991 RMK A01 T04030150  RH  023%=      5-min Rain = 0
KPD3 121858Z 20012KT 40/15 A2991 RMK A01 T04000150  RH  023%=      5-min Rain = 0
KPD3 121859Z 21012KT 40/15 A2991 RMK A01 T03990151  RH  023%=      5-min Rain = 0
KPD3 121900Z 20012KT 40/15 A2991 RMK A01 T03980149  RH  023%=      5-min Rain = 0
KPD3 121901Z 19013KT 39/15 A2991 RMK A01 T03930149  RH  024%=      5-min Rain = 0
KPD3 121902Z 19013KT 39/15 A2991 RMK A01 T03890149  RH  024%=      5-min Rain = 0
KPD3 121903Z 18013G21KT 39/15 A2991 RMK A01 T03890151  RH  025%=      5-min Rain = 0
KPD3 121904Z 18018G24KT 40/15 A2991 RMK A01 T03950152  RH  024%=      5-min Rain = 0
KPD3 121905Z 18017G24KT 40/15 A2991 RMK A01 T04000151  RH  023%=      5-min Rain = 0
KPD3 121906Z 18017KT 40/15 A2991 RMK A01 T04030151  RH  023%=      5-min Rain = 0
KPD3 121907Z 19018KT 40/15 A2991 RMK A01 T04030149  RH  023%=      5-min Rain = 0
KPD3 121908Z 19014KT 40/15 A2991 RMK A01 T04000149  RH  023%=      5-min Rain = 0
KPD3 121909Z 17012G17KT 40/15 A2991 RMK A01 T03970148  RH  023%=      5-min Rain = 0
KPD3 121910Z 17017G22KT 40/15 A2991 RMK A01 T03990150  RH  023%=      5-min Rain = 0
KPD3 121911Z 19014KT 40/15 A2991 RMK A01 T04030149  RH  023%=      5-min Rain = 0
KPD3 121912Z 17014KT 41/15 A2991 RMK A01 T04050149  RH  022%=      5-min Rain = 0
KPD3 121913Z 17016KT 41/15 A2991 RMK A01 T04060150  RH  022%=      5-min Rain = 0
KPD3 121914Z 17015KT 41/15 A2991 RMK A01 T04060150  RH  022%=      5-min Rain = 0
KPD3 121915Z 18012KT 40/15 A2991 RMK A01 T04030150  RH  023%=      5-min Rain = 0
KPD3 121916Z 18009KT 41/15 A299 RMK A01 T04060153  RH  023%=      5-min Rain = 0
KPD3 121917Z 16012G18KT 42/15 A2991 RMK A01 T04160153  RH  022%=      5-min Rain = 0
KPD3 121918Z 14009KT 41/15 A299 RMK A01 T04110150  RH  022%=      5-min Rain = 0
KPD3 121919Z 20011KT 40/15 A299 RMK A01 T04020150  RH  023%=      5-min Rain = 0
KPD3 121920Z 20011G16KT 40/15 A299 RMK A01 T04000150  RH  023%=      5-min Rain = 0
KPD3 121921Z 18017KT 40/15 A299 RMK A01 T04010151  RH  023%=      5-min Rain = 0
KPD3 121922Z 17017G22KT 40/15 A299 RMK A01 T04030151  RH  023%=      5-min Rain = 0
KPD3 121923Z 17015KT 41/15 A299 RMK A01 T04080153  RH  023%=      5-min Rain = 0
KPD3 121924Z 17015G20KT 41/15 A299 RMK A01 T04120152  RH  022%=      5-min Rain = 0
KPD3 121925Z 17016KT 41/15 A299 RMK A01 T04100150  RH  022%=      5-min Rain = 0
KPD3 121926Z 16010KT 41/15 A299 RMK A01 T04050149  RH  022%=      5-min Rain = 0
KPD3 121927Z 18011KT 40/15 A299 RMK A01 T04040151  RH  023%=      5-min Rain = 0
KPD3 121928Z 17011KT 41/15 A299 RMK A01 T04050152  RH  023%=      5-min Rain = 0
KPD3 121929Z 17018G24KT 41/15 A299 RMK A01 T04090151  RH  022%=      5-min Rain = 0
KPD3 121930Z 16019G24KT 41/15 A299 RMK A01 T04080149  RH  022%=      5-min Rain = 0
KPD3 121931Z 17018KT 40/15 A299 RMK A01 T04000146  RH  022%=      5-min Rain = 0
KPD3 121932Z 19015G20KT 39/15 A299 RMK A01 T03910146  RH  024%=      5-min Rain = 0
KPD3 121933Z 19011KT 39/15 A299 RMK A01 T03870147  RH  024%=      5-min Rain = 0
KPD3 121934Z 18012KT 39/15 A299 RMK A01 T03850146  RH  024%=      5-min Rain = 0
KPD3 121935Z 14015KT 39/15 A299 RMK A01 T03850148  RH  025%=      5-min Rain = 0
KPD3 121936Z 15017KT 39/15 A299 RMK A01 T03870149  RH  025%=      5-min Rain = 0
KPD3 121937Z 14012KT 39/15 A299 RMK A01 T03880148  RH  024%=      5-min Rain = 0
KPD3 121938Z 14014G19KT 39/15 A299 RMK A01 T03900152  RH  025%=      5-min Rain = 0
KPD3 121939Z 14015KT 40/15 A299 RMK A01 T03980154  RH  024%=      5-min Rain = 0
KPD3 121940Z 14016G21KT 40/15 A299 RMK A01 T04040154  RH  023%=      5-min Rain = 0
KPD3 121941Z 14018KT 41/15 A299 RMK A01 T04050153  RH  023%=      5-min Rain = 0
KPD3 121942Z 14015KT 40/15 A299 RMK A01 T04030152  RH  023%=      5-min Rain = 0
KPD3 121943Z 15017KT 40/15 A299 RMK A01 T04010151  RH  023%=      5-min Rain = 0
KPD3 121944Z 16015KT 40/15 A299 RMK A01 T03990150  RH  023%=      5-min Rain = 0
KPD3 121945Z 16018KT 40/15 A299 RMK A01 T03990149  RH  023%=      5-min Rain = 0
KPD3 121946Z 16017KT 40/15 A299 RMK A01 T04000149  RH  023%=      5-min Rain = 0
KPD3 121947Z 17015KT 40/15 A299 RMK A01 T04010149  RH  023%=      5-min Rain = 0
KPD3 121948Z 16016KT 40/15 A299 RMK A01 T03960148  RH  023%=      5-min Rain = 0
KPD3 121949Z 15013KT 39/15 A2989 RMK A01 T03940147  RH  023%=      5-min Rain = 0
KPD3 121950Z 16014KT 40/15 A2989 RMK A01 T03960148  RH  023%=      5-min Rain = 0
KPD3 121951Z 15012KT 40/15 A2989 RMK A01 T04000147  RH  023%=      5-min Rain = 0
KPD3 121952Z 15011KT 40/15 A2989 RMK A01 T04040149  RH  022%=      5-min Rain = 0
KPD3 121953Z 15014G19KT 41/15 A2989 RMK A01 T04060148  RH  022%=      5-min Rain = 0
KPD3 121954Z 13013KT 41/15 A2989 RMK A01 T04060148  RH  022%=      5-min Rain = 0
KPD3 121955Z 13017KT 41/15 A2989 RMK A01 T04060148  RH  022%=      5-min Rain = 0
KPD3 121956Z 14017KT 41/15 A2989 RMK A01 T04060148  RH  022%=      5-min Rain = 0
KPD3 121957Z 15014KT 41/15 A2989 RMK A01 T04080148  RH  022%=      5-min Rain = 0
KPD3 121958Z 14012KT 41/15 A2989 RMK A01 T04050146  RH  022%=      5-min Rain = 0
KPD3 121959Z 14013KT 40/15 A2989 RMK A01 T04010145  RH  022%=      5-min Rain = 0
KPD3 122000Z 12016KT 40/15 A2989 RMK A01 T03970145  RH  023%=      5-min Rain = 0
KPD3 122001Z 13014KT 39/15 A2989 RMK A01 T03930145  RH  023%=      5-min Rain = 0
KPD3 122002Z 15013KT 39/14 A2989 RMK A01 T03880143  RH  024%=      5-min Rain = 0
KPD3 122003Z 14011KT 39/14 A2989 RMK A01 T03860143  RH  024%=      5-min Rain = 0
KPD3 122004Z 14012KT 39/14 A2989 RMK A01 T03850143  RH  024%=      5-min Rain = 0
KPD3 122005Z 14016KT 39/14 A2989 RMK A01 T03850143  RH  024%=      5-min Rain = 0
KPD3 122006Z 13013KT 38/14 A2988 RMK A01 T03840143  RH  024%=      5-min Rain = 0
KPD3 122007Z 14017KT 38/14 A2988 RMK A01 T03840142  RH  024%=      5-min Rain = 0
KPD3 122008Z 18016KT 38/14 A2988 RMK A01 T03840143  RH  024%=      5-min Rain = 0
KPD3 122009Z 19012KT 38/14 A2988 RMK A01 T03840142  RH  024%=      5-min Rain = 0
KPD3 122010Z 18010KT 38/14 A2988 RMK A01 T03810142  RH  024%=      5-min Rain = 0
KPD3 122011Z 17009KT 38/14 A2988 RMK A01 T03810142  RH  024%=      5-min Rain = 0
KPD3 122012Z 15010KT 38/14 A2988 RMK A01 T03810143  RH  024%=      5-min Rain = 0
KPD3 122013Z 14010KT 38/14 A2988 RMK A01 T03810144  RH  025%=      5-min Rain = 0
KPD3 122014Z 14015KT 38/14 A2988 RMK A01 T03830140  RH  024%=      5-min Rain = 0
KPD3 122015Z 15012KT 38/14 A2988 RMK A01 T03840140  RH  024%=      5-min Rain = 0
KPD3 122016Z 14014KT 39/14 A2988 RMK A01 T03850141  RH  024%=      5-min Rain = 0
KPD3 122017Z 14013KT 39/14 A2988 RMK A01 T03850142  RH  024%=      5-min Rain = 0
KPD3 122018Z 15011KT 39/14 A2988 RMK A01 T03860142  RH  024%=      5-min Rain = 0
KPD3 122019Z 16012G18KT 39/15 A2988 RMK A01 T03890145  RH  024%=      5-min Rain = 0
KPD3 122020Z 17015KT 40/14 A2988 RMK A01 T03950144  RH  023%=      5-min Rain = 0
KPD3 122021Z 17013KT 39/14 A2988 RMK A01 T03940142  RH  023%=      5-min Rain = 0
KPD3 122022Z 17012KT 39/14 A2988 RMK A01 T03920141  RH  023%=      5-min Rain = 0
KPD3 122023Z 15012G17KT 39/14 A2988 RMK A01 T03910141  RH  023%=      5-min Rain = 0
KPD3 122024Z 15015KT 39/14 A2988 RMK A01 T03890140  RH  023%=      5-min Rain = 0
KPD3 122025Z 15014KT 39/14 A2988 RMK A01 T03860139  RH  023%=      5-min Rain = 0
KPD3 122026Z 16015G20KT 39/14 A2988 RMK A01 T03850139  RH  023%=      5-min Rain = 0
KPD3 122027Z 17013KT 38/14 A2988 RMK A01 T03840139  RH  023%=      5-min Rain = 0
KPD3 122028Z 18014KT 38/14 A2988 RMK A01 T03840140  RH  023%=      5-min Rain = 0
KPD3 122029Z 17012KT 39/14 A2988 RMK A01 T03850139  RH  023%=      5-min Rain = 0
KPD3 122030Z 18013KT 39/14 A2988 RMK A01 T03850139  RH  023%=      5-min Rain = 0
KPD3 122031Z 16013KT 39/14 A2987 RMK A01 T03870140  RH  023%=      5-min Rain = 0
KPD3 122032Z 16014KT 39/14 A2987 RMK A01 T03920141  RH  023%=      5-min Rain = 0
KPD3 122033Z 16014KT 40/14 A2987 RMK A01 T03980142  RH  022%=      5-min Rain = 0
KPD3 122034Z 17018G23KT 40/14 A2987 RMK A01 T04020140  RH  021%=      5-min Rain = 0
KPD3 122035Z 17014G19KT 40/14 A2987 RMK A01 T03970137  RH  022%=      5-min Rain = 0
KPD3 122036Z 18013G18KT 39/14 A2987 RMK A01 T03920137  RH  022%=      5-min Rain = 0
KPD3 122037Z 19012KT 39/14 A2987 RMK A01 T03890137  RH  022%=      5-min Rain = 0
KPD3 122038Z 15014G21KT 39/14 A2987 RMK A01 T03880137  RH  023%=      5-min Rain = 0
KPD3 122039Z 15016G21KT 39/14 A2987 RMK A01 T03890137  RH  022%=      5-min Rain = 0
KPD3 122040Z 14015KT 39/14 A2987 RMK A01 T03890137  RH  022%=      5-min Rain = 0
KPD3 122041Z 14013KT 39/14 A2987 RMK A01 T03870137  RH  023%=      5-min Rain = 0
KPD3 122042Z 16014KT 39/14 A2987 RMK A01 T03860137  RH  023%=      5-min Rain = 0
KPD3 122043Z 17015KT 39/14 A2987 RMK A01 T03870137  RH  023%=      5-min Rain = 0
KPD3 122044Z 17015KT 39/14 A2987 RMK A01 T03870137  RH  023%=      5-min Rain = 0
KPD3 122045Z 17012KT 39/14 A2987 RMK A01 T03870138  RH  023%=      5-min Rain = 0
KPD3 122046Z 17012KT 39/14 A2987 RMK A01 T03920139  RH  022%=      5-min Rain = 0
KPD3 122047Z 18011KT 40/14 A2986 RMK A01 T03970139  RH  022%=      5-min Rain = 0
KPD3 122048Z 18013KT 40/14 A2986 RMK A01 T03980138  RH  022%=      5-min Rain = 0
KPD3 122049Z 17018G26KT 40/14 A2986 RMK A01 T03970138  RH  022%=      5-min Rain = 0
KPD3 122050Z 16019KT 40/14 A2986 RMK A01 T03970137  RH  022%=      5-min Rain = 0
KPD3 122051Z 16017KT 39/14 A2986 RMK A01 T03940136  RH  022%=      5-min Rain = 0
KPD3 122052Z 15018KT 39/14 A2986 RMK A01 T03930138  RH  022%=      5-min Rain = 0
KPD3 122053Z 15016KT 40/14 A2986 RMK A01 T03950139  RH  022%=      5-min Rain = 0
KPD3 122054Z 14015KT 40/14 A2986 RMK A01 T03980139  RH  022%=      5-min Rain = 0
KPD3 122055Z 15018KT 40/14 A2986 RMK A01 T03990140  RH  022%=      5-min Rain = 0
KPD3 122056Z 17023G28KT 40/14 A2986 RMK A01 T04040141  RH  021%=      5-min Rain = 0
KPD3 122057Z 18020KT 40/14 A2986 RMK A01 T04040140  RH  021%=      5-min Rain = 0
KPD3 122058Z 17018KT 40/14 A2986 RMK A01 T03990138  RH  022%=      5-min Rain = 0
KPD3 122059Z 17016KT 40/14 A2986 RMK A01 T03990140  RH  022%=      5-min Rain = 0
KPD3 122100Z 16016KT 40/14 A2986 RMK A01 T04010140  RH  021%=      5-min Rain = 0
KPD3 122101Z 14015KT 40/14 A2986 RMK A01 T03970137  RH  022%=      5-min Rain = 0
KPD3 122102Z 14014KT 39/14 A2986 RMK A01 T03930138  RH  022%=      5-min Rain = 0
KPD3 122103Z 14015KT 39/14 A2986 RMK A01 T03920138  RH  022%=      5-min Rain = 0
KPD3 122104Z 13013KT 39/14 A2986 RMK A01 T03940139  RH  022%=      5-min Rain = 0
KPD3 122105Z 13014G19KT 40/14 A2985 RMK A01 T03980141  RH  022%=      5-min Rain = 0
KPD3 122106Z 15019KT 40/14 A2985 RMK A01 T04010142  RH  022%=      5-min Rain = 0
KPD3 122107Z 15015KT 40/14 A2985 RMK A01 T04020142  RH  022%=      5-min Rain = 0
KPD3 122108Z 15017G22KT 41/14 A2985 RMK A01 T04060144  RH  022%=      5-min Rain = 0
KPD3 122109Z 16018KT 41/14 A2985 RMK A01 T04080142  RH  021%=      5-min Rain = 0
KPD3 122110Z 17017KT 40/14 A2985 RMK A01 T04020140  RH  021%=      5-min Rain = 0
KPD3 122111Z 17014KT 39/14 A2985 RMK A01 T03930139  RH  022%=      5-min Rain = 0
KPD3 122112Z 14017G27KT 39/14 A2985 RMK A01 T03900140  RH  023%=      5-min Rain = 0
KPD3 122113Z 18018G26KT 39/14 A2985 RMK A01 T03890140  RH  023%=      5-min Rain = 0
KPD3 122114Z 17013KT 39/14 A2985 RMK A01 T03890138  RH  023%=      5-min Rain = 0
KPD3 122115Z 16016G24KT 40/15 A2985 RMK A01 T03950145  RH  023%=      5-min Rain = 0
KPD3 122116Z 16020KT 40/14 A2985 RMK A01 T04020144  RH  022%=      5-min Rain = 0
KPD3 122117Z 15020KT 40/14 A2985 RMK A01 T04020141  RH  022%=      5-min Rain = 0
KPD3 122118Z 16016KT 40/14 A2985 RMK A01 T03960140  RH  022%=      5-min Rain = 0
KPD3 122119Z 15014KT 39/14 A2985 RMK A01 T03930140  RH  022%=      5-min Rain = 0
KPD3 122120Z 15017KT 39/14 A2985 RMK A01 T03900141  RH  023%=      5-min Rain = 0
KPD3 122121Z 16015KT 39/14 A2985 RMK A01 T03880141  RH  023%=      5-min Rain = 0
KPD3 122122Z 16016KT 39/14 A2985 RMK A01 T03870142  RH  023%=      5-min Rain = 0
KPD3 122123Z 16017KT 39/14 A2985 RMK A01 T03860142  RH  024%=      5-min Rain = 0
KPD3 122124Z 15016KT 39/14 A2985 RMK A01 T03860142  RH  024%=      5-min Rain = 0
KPD3 122125Z 13016KT 39/14 A2985 RMK A01 T03870142  RH  024%=      5-min Rain = 0
KPD3 122126Z 13017KT 39/14 A2985 RMK A01 T03890143  RH  023%=      5-min Rain = 0
KPD3 122127Z 16014KT 39/14 A2985 RMK A01 T03910142  RH  023%=      5-min Rain = 0
KPD3 122128Z 15011KT 39/14 A2985 RMK A01 T03900141  RH  023%=      5-min Rain = 0
KPD3 122129Z 17017KT 39/14 A2985 RMK A01 T03890141  RH  023%=      5-min Rain = 0
KPD3 122130Z 18018KT 39/14 A2985 RMK A01 T03890141  RH  023%=      5-min Rain = 0
KPD3 122131Z 16022KT 39/14 A2985 RMK A01 T03940143  RH  023%=      5-min Rain = 0
KPD3 122132Z 16018KT 40/14 A2985 RMK A01 T03960142  RH  022%=      5-min Rain = 0
KPD3 122133Z 16020G25KT 40/14 A2985 RMK A01 T04010143  RH  022%=      5-min Rain = 0
KPD3 122134Z 15019KT 40/14 A2985 RMK A01 T04030142  RH  022%=      5-min Rain = 0
KPD3 122135Z 15016KT 41/14 A2985 RMK A01 T04050143  RH  021%=      5-min Rain = 0
KPD3 122136Z 14018KT 41/14 A2984 RMK A01 T04060142  RH  021%=      5-min Rain = 0
KPD3 122137Z 14019KT 41/14 A2984 RMK A01 T04060143  RH  021%=      5-min Rain = 0
KPD3 122138Z 16018G24KT 41/14 A2985 RMK A01 T04090143  RH  021%=      5-min Rain = 0
KPD3 122139Z 16016KT 41/14 A2985 RMK A01 T04100143  RH  021%=      5-min Rain = 0
KPD3 122140Z 16019KT 41/14 A2985 RMK A01 T04100143  RH  021%=      5-min Rain = 0
KPD3 122141Z 16017G23KT 40/14 A2985 RMK A01 T04010140  RH  022%=      5-min Rain = 0
KPD3 122142Z 16015G20KT 40/14 A2985 RMK A01 T03960140  RH  022%=      5-min Rain = 0
KPD3 122143Z 17019KT 39/14 A2985 RMK A01 T03940140  RH  022%=      5-min Rain = 0
KPD3 122144Z 17018KT 39/14 A2985 RMK A01 T03900140  RH  023%=      5-min Rain = 0
KPD3 122145Z 16019KT 39/14 A2985 RMK A01 T03880141  RH  023%=      5-min Rain = 0
KPD3 122146Z 16017KT 39/14 A2985 RMK A01 T03850140  RH  023%=      5-min Rain = 0
KPD3 122147Z 16017KT 38/14 A2985 RMK A01 T03840141  RH  024%=      5-min Rain = 0
KPD3 122148Z 16014KT 38/14 A2985 RMK A01 T03830141  RH  024%=      5-min Rain = 0
KPD3 122149Z 16014KT 38/14 A2985 RMK A01 T03820141  RH  024%=      5-min Rain = 0
KPD3 122150Z 15014KT 38/14 A2985 RMK A01 T03820142  RH  024%=      5-min Rain = 0
KPD3 122151Z 15016G21KT 38/14 A2985 RMK A01 T03840142  RH  024%=      5-min Rain = 0
KPD3 122152Z 14016G21KT 39/14 A2985 RMK A01 T03910144  RH  023%=      5-min Rain = 0
KPD3 122153Z 15016KT 40/14 A2985 RMK A01 T03970144  RH  023%=      5-min Rain = 0
KPD3 122154Z 16016KT 40/14 A2985 RMK A01 T04000143  RH  022%=      5-min Rain = 0
KPD3 122155Z 16018KT 40/14 A2984 RMK A01 T04010142  RH  022%=      5-min Rain = 0
KPD3 122156Z 16015KT 40/14 A2984 RMK A01 T03990142  RH  022%=      5-min Rain = 0
KPD3 122157Z 17018KT 40/14 A2984 RMK A01 T04010142  RH  022%=      5-min Rain = 0
KPD3 122158Z 17015KT 40/14 A2984 RMK A01 T03990141  RH  022%=      5-min Rain = 0
KPD3 122159Z 16017KT 39/14 A2984 RMK A01 T03940139  RH  022%=      5-min Rain = 0
KPD3 122200Z 14016KT 39/14 A2984 RMK A01 T03880139  RH  023%=      5-min Rain = 0
KPD3 122201Z 14016KT 39/14 A2984 RMK A01 T03860140  RH  023%=      5-min Rain = 0
KPD3 122202Z 15016KT 38/14 A2984 RMK A01 T03840140  RH  024%=      5-min Rain = 0
KPD3 122203Z 15016KT 39/14 A2984 RMK A01 T03860142  RH  024%=      5-min Rain = 0
KPD3 122204Z 15021KT 39/14 A2984 RMK A01 T03910142  RH  023%=      5-min Rain = 0
KPD3 122205Z 15020KT 39/14 A2984 RMK A01 T03930142  RH  023%=      5-min Rain = 0
KPD3 122206Z 16019KT 40/14 A2984 RMK A01 T03960143  RH  023%=      5-min Rain = 0
KPD3 122207Z 15019G25KT 40/14 A2984 RMK A01 T03990143  RH  022%=      5-min Rain = 0
KPD3 122208Z 15018KT 40/14 A2984 RMK A01 T04020143  RH  022%=      5-min Rain = 0
KPD3 122209Z 16021KT 40/14 A2984 RMK A01 T04040143  RH  022%=      5-min Rain = 0
KPD3 122210Z 16017KT 40/14 A2984 RMK A01 T04040141  RH  021%=      5-min Rain = 0
KPD3 122211Z 16015KT 40/14 A2984 RMK A01 T04020142  RH  022%=      5-min Rain = 0
KPD3 122212Z 16015KT 40/14 A2985 RMK A01 T03960140  RH  022%=      5-min Rain = 0
KPD3 122213Z 17017KT 39/14 A2985 RMK A01 T03910140  RH  023%=      5-min Rain = 0
KPD3 122214Z 17018KT 39/14 A2985 RMK A01 T03860141  RH  023%=      5-min Rain = 0
KPD3 122215Z 16013KT 38/14 A2985 RMK A01 T03840141  RH  024%=      5-min Rain = 0
KPD3 122216Z 15013KT 38/14 A2984 RMK A01 T03830141  RH  024%=      5-min Rain = 0
KPD3 122217Z 15015KT 38/14 A2984 RMK A01 T03830142  RH  024%=      5-min Rain = 0
KPD3 122218Z 15016KT 38/14 A2984 RMK A01 T03830142  RH  024%=      5-min Rain = 0
KPD3 122219Z 16014KT 39/14 A2984 RMK A01 T03850143  RH  024%=      5-min Rain = 0
KPD3 122220Z 15014KT 39/15 A2984 RMK A01 T03900145  RH  024%=      5-min Rain = 0
KPD3 122221Z 14015KT 40/15 A2984 RMK A01 T03950145  RH  023%=      5-min Rain = 0
KPD3 122222Z 15012KT 40/14 A2984 RMK A01 T03970144  RH  023%=      5-min Rain = 0
KPD3 122223Z 16012KT 40/14 A2984 RMK A01 T03950143  RH  023%=      5-min Rain = 0
KPD3 122224Z 15013KT 39/14 A2984 RMK A01 T03940143  RH  023%=      5-min Rain = 0
KPD3 122225Z 15015KT 40/15 A2984 RMK A01 T03980145  RH  023%=      5-min Rain = 0
KPD3 122226Z 15015KT 40/14 A2984 RMK A01 T04010144  RH  022%=      5-min Rain = 0
KPD3 122227Z 15016KT 40/14 A2984 RMK A01 T04020144  RH  022%=      5-min Rain = 0
KPD3 122228Z 16015KT 40/14 A2984 RMK A01 T04030143  RH  022%=      5-min Rain = 0
KPD3 122229Z 16016KT 40/14 A2984 RMK A01 T04010143  RH  022%=      5-min Rain = 0
KPD3 122230Z 15016KT 40/14 A2984 RMK A01 T03970142  RH  022%=      5-min Rain = 0
KPD3 122231Z 14014KT 39/14 A2984 RMK A01 T03920141  RH  023%=      5-min Rain = 0
KPD3 122232Z 15012KT 39/14 A2984 RMK A01 T03900141  RH  023%=      5-min Rain = 0
KPD3 122233Z 15013KT 39/14 A2984 RMK A01 T03890142  RH  023%=      5-min Rain = 0
KPD3 122234Z 15015KT 39/14 A2984 RMK A01 T03890142  RH  023%=      5-min Rain = 0
KPD3 122235Z 16014KT 40/15 A2984 RMK A01 T03950146  RH  023%=      5-min Rain = 0
KPD3 122236Z 15017KT 40/15 A2983 RMK A01 T04010146  RH  022%=      5-min Rain = 0
KPD3 122237Z 18017KT 40/14 A2984 RMK A01 T04010140  RH  022%=      5-min Rain = 0
KPD3 122238Z 18015KT 40/14 A2984 RMK A01 T03990139  RH  022%=      5-min Rain = 0
KPD3 122239Z 18019KT 40/14 A2984 RMK A01 T03970137  RH  022%=      5-min Rain = 0
KPD3 122240Z 19017KT 40/14 A2984 RMK A01 T03960139  RH  022%=      5-min Rain = 0
KPD3 122241Z 18012KT 40/14 A2984 RMK A01 T03970140  RH  022%=      5-min Rain = 0
KPD3 122242Z 19014KT 40/14 A2984 RMK A01 T04010141  RH  022%=      5-min Rain = 0
KPD3 122243Z 20019KT 40/14 A2984 RMK A01 T04000135  RH  021%=      5-min Rain = 0
KPD3 122244Z 19018KT 39/13 A2984 RMK A01 T03940132  RH  021%=      5-min Rain = 0
KPD3 122245Z 19012KT 39/13 A2984 RMK A01 T03900133  RH  022%=      5-min Rain = 0
KPD3 122246Z 19013KT 39/13 A2984 RMK A01 T03920133  RH  022%=      5-min Rain = 0
KPD3 122247Z 18014G19KT 40/14 A2984 RMK A01 T03970135  RH  021%=      5-min Rain = 0
KPD3 122248Z 17015KT 40/14 A2984 RMK A01 T04000136  RH  021%=      5-min Rain = 0
KPD3 122249Z 18011KT 40/14 A2984 RMK A01 T03980135  RH  021%=      5-min Rain = 0
KPD3 122250Z 18010KT 39/14 A2984 RMK A01 T03940135  RH  022%=      5-min Rain = 0
KPD3 122251Z 18009KT 39/14 A2984 RMK A01 T03910136  RH  022%=      5-min Rain = 0
KPD3 122252Z 18011KT 39/14 A2984 RMK A01 T03890136  RH  022%=      5-min Rain = 0
KPD3 122253Z 18012G18KT 39/14 A2984 RMK A01 T03880138  RH  023%=      5-min Rain = 0
KPD3 122254Z 18017KT 39/14 A2984 RMK A01 T03880138  RH  023%=      5-min Rain = 0
KPD3 122255Z 17018KT 39/14 A2983 RMK A01 T03880138  RH  023%=      5-min Rain = 0
KPD3 122256Z 17017KT 39/14 A2983 RMK A01 T03880139  RH  023%=      5-min Rain = 0
KPD3 122257Z 19016KT 39/14 A2983 RMK A01 T03880139  RH  023%=      5-min Rain = 0
KPD3 122258Z 19014KT 39/14 A2983 RMK A01 T03880139  RH  023%=      5-min Rain = 0
KPD3 122259Z 18015KT 39/14 A2983 RMK A01 T03870136  RH  023%=      5-min Rain = 0
KPD3 122300Z 18012KT 39/13 A2983 RMK A01 T03870133  RH  022%=      5-min Rain = 0
KPD3 122301Z 18012KT 39/14 A2983 RMK A01 T03890135  RH  022%=      5-min Rain = 0
KPD3 122302Z 18013KT 39/14 A2983 RMK A01 T03940135  RH  022%=      5-min Rain = 0
KPD3 122303Z 16013KT 40/14 A2983 RMK A01 T03970143  RH  022%=      5-min Rain = 0
KPD3 122304Z 16011KT 40/15 A2983 RMK A01 T04000146  RH  023%=      5-min Rain = 0
KPD3 122305Z 18011G18KT 41/15 A2983 RMK A01 T04050147  RH  022%=      5-min Rain = 0
KPD3 122306Z 17016KT 41/15 A2983 RMK A01 T04070146  RH  022%=      5-min Rain = 0
KPD3 122307Z 19016KT 41/15 A2983 RMK A01 T04070146  RH  022%=      5-min Rain = 0
KPD3 122308Z 18016KT 41/15 A2983 RMK A01 T04050146  RH  022%=      5-min Rain = 0
KPD3 122309Z 16018KT 40/15 A2983 RMK A01 T04020145  RH  022%=      5-min Rain = 0
KPD3 122310Z 16017KT 40/15 A2983 RMK A01 T04000145  RH  022%=      5-min Rain = 0
KPD3 122311Z 16014KT 40/15 A2983 RMK A01 T03990145  RH  023%=      5-min Rain = 0
KPD3 122312Z 15016G21KT 40/15 A2983 RMK A01 T04000145  RH  022%=      5-min Rain = 0
KPD3 122313Z 15016KT 40/15 A2983 RMK A01 T04020145  RH  022%=      5-min Rain = 0
KPD3 122314Z 16014KT 40/15 A2983 RMK A01 T04010145  RH  022%=      5-min Rain = 0
KPD3 122315Z 17013KT 40/14 A2983 RMK A01 T04030144  RH  022%=      5-min Rain = 0
KPD3 122316Z 18012KT 40/14 A2983 RMK A01 T04020143  RH  022%=      5-min Rain = 0
KPD3 122317Z 19014KT 40/14 A2983 RMK A01 T04010143  RH  022%=      5-min Rain = 0
KPD3 122318Z 19014KT 40/14 A2983 RMK A01 T03980141  RH  022%=      5-min Rain = 0
KPD3 122319Z 19013KT 40/14 A2983 RMK A01 T03970142  RH  022%=      5-min Rain = 0
KPD3 122320Z 18017KT 40/14 A2983 RMK A01 T03980140  RH  022%=      5-min Rain = 0
KPD3 122321Z 18014KT 40/14 A2983 RMK A01 T03990140  RH  022%=      5-min Rain = 0
KPD3 122322Z 18012KT 40/14 A2983 RMK A01 T03990140  RH  022%=      5-min Rain = 0
KPD3 122323Z 19012KT 40/14 A2983 RMK A01 T04010140  RH  022%=      5-min Rain = 0
KPD3 122324Z 20012KT 40/14 A2983 RMK A01 T04010139  RH  021%=      5-min Rain = 0
KPD3 122325Z 20012KT 40/14 A2983 RMK A01 T04000138  RH  021%=      5-min Rain = 0
KPD3 122326Z 19013KT 40/14 A2983 RMK A01 T03990138  RH  022%=      5-min Rain = 0
KPD3 122327Z 19013KT 40/14 A2983 RMK A01 T03990139  RH  022%=      5-min Rain = 0
KPD3 122328Z 19017KT 40/14 A2983 RMK A01 T04000138  RH  021%=      5-min Rain = 0
KPD3 122329Z 19014KT 40/14 A2984 RMK A01 T04000137  RH  021%=      5-min Rain = 0
KPD3 122330Z 17013KT 40/14 A2984 RMK A01 T03970137  RH  021%=      5-min Rain = 0
KPD3 122331Z 18014KT 40/14 A2984 RMK A01 T03950136  RH  022%=      5-min Rain = 0
KPD3 122332Z 18011KT 39/14 A2984 RMK A01 T03900135  RH  022%=      5-min Rain = 0
KPD3 122333Z 20009KT 39/14 A2984 RMK A01 T03880136  RH  022%=      5-min Rain = 0
KPD3 122334Z 20009KT 39/14 A2984 RMK A01 T03860136  RH  023%=      5-min Rain = 0
KPD3 122335Z 20010KT 39/14 A2984 RMK A01 T03860137  RH  023%=      5-min Rain = 0
KPD3 122336Z 20007KT 39/14 A2984 RMK A01 T03850136  RH  023%=      5-min Rain = 0
KPD3 122337Z 20007KT 38/14 A2984 RMK A01 T03840136  RH  023%=      5-min Rain = 0
KPD3 122338Z 19006KT 38/14 A2984 RMK A01 T03840137  RH  023%=      5-min Rain = 0
KPD3 122339Z 19006KT 38/14 A2984 RMK A01 T03840137  RH  023%=      5-min Rain = 0
KPD3 122340Z 19009KT 38/14 A2984 RMK A01 T03840136  RH  023%=      5-min Rain = 0
KPD3 122341Z 19009KT 38/14 A2984 RMK A01 T03840137  RH  023%=      5-min Rain = 0
KPD3 122342Z 17009KT 38/14 A2984 RMK A01 T03840136  RH  023%=      5-min Rain = 0
KPD3 122343Z 16008KT 38/14 A2984 RMK A01 T03840136  RH  023%=      5-min Rain = 0
KPD3 122344Z 15007KT 38/14 A2984 RMK A01 T03840135  RH  023%=      5-min Rain = 0
KPD3 122345Z 15009KT 39/14 A2984 RMK A01 T03860136  RH  023%=      5-min Rain = 0
KPD3 122346Z 16011KT 39/14 A2984 RMK A01 T03870136  RH  023%=      5-min Rain = 0
KPD3 122347Z 18009KT 39/14 A2984 RMK A01 T03890136  RH  022%=      5-min Rain = 0
KPD3 122348Z 19006G12KT 39/14 A2984 RMK A01 T03910138  RH  022%=      5-min Rain = 0
KPD3 122349Z 17009KT 39/14 A2984 RMK A01 T03920137  RH  022%=      5-min Rain = 0
KPD3 122350Z 17006KT 39/14 A2984 RMK A01 T03910135  RH  022%=      5-min Rain = 0
KPD3 122351Z 15006KT 39/14 A2984 RMK A01 T03900136  RH  022%=      5-min Rain = 0
KPD3 122352Z 10003KT 39/14 A2985 RMK A01 T03890136  RH  022%=      5-min Rain = 0
KPD3 122353Z 02007KT 39/15 A2985 RMK A01 T03890149  RH  024%=      5-min Rain = 0
KPD3 122354Z 01008KT 38/17 A2985 RMK A01 T03770173  RH  030%=      5-min Rain = 0
KPD3 122355Z 01010KT 36/17 A2985 RMK A01 T03580173  RH  034%=      5-min Rain = 0
KPD3 122356Z 01011KT 35/17 A2985 RMK A01 T03490172  RH  035%=      5-min Rain = 0
KPD3 122357Z 02009KT 34/17 A2985 RMK A01 T03430171  RH  036%=      5-min Rain = 0
KPD3 122358Z 03009KT 34/17 A2985 RMK A01 T03400172  RH  037%=      5-min Rain = 0
KPD3 122359Z 01009KT 34/17 A2985 RMK A01 T03410172  RH  037%=      5-min Rain = 0
KPD3 130000Z 36007KT 34/17 A2985 RMK A01 T03410173  RH  037%=      5-min Rain = 0
KPD3 130001Z 36006KT 34/17 A2985 RMK A01 T03390174  RH  037%=      5-min Rain = 0
KPD3 130002Z 03007KT 34/17 A2985 RMK A01 T03380174  RH  038%=      5-min Rain = 0
KPD3 130003Z 02009KT 34/17 A2985 RMK A01 T03370174  RH  038%=      5-min Rain = 0
KPD3 130004Z 02012KT 34/17 A2985 RMK A01 T03370174  RH  038%=      5-min Rain = 0
KPD3 130005Z 03018G25KT 34/17 A2984 RMK A01 T03360173  RH  038%=      5-min Rain = 0
KPD3 130006Z 04018G26KT 34/17 A2985 RMK A01 T03360172  RH  038%=      5-min Rain = 0
KPD3 130007Z 03014KT 33/17 A2985 RMK A01 T03330173  RH  038%=      5-min Rain = 0
KPD3 130008Z 03015G21KT 33/17 A2984 RMK A01 T03310173  RH  039%=      5-min Rain = 0
KPD3 130009Z 02018G23KT 33/17 A2984 RMK A01 T03310173  RH  039%=      5-min Rain = 0
KPD3 130010Z 03018KT 33/17 A2984 RMK A01 T03320172  RH  039%=      5-min Rain = 0
KPD3 130011Z 03018G25KT 33/17 A2984 RMK A01 T03330172  RH  038%=      5-min Rain = 0
KPD3 130012Z 02020KT 33/17 A2984 RMK A01 T03320172  RH  039%=      5-min Rain = 0
KPD3 130013Z 03020KT 33/17 A2984 RMK A01 T03300172  RH  039%=      5-min Rain = 0
KPD3 130014Z 03019KT 33/17 A2985 RMK A01 T03300172  RH  039%=      5-min Rain = 0
KPD3 130015Z 02017KT 33/17 A2985 RMK A01 T03290173  RH  039%=      5-min Rain = 0
KPD3 130016Z 03016KT 33/17 A2985 RMK A01 T03290174  RH  040%=      5-min Rain = 0
KPD3 130017Z 03017KT 33/18 A2985 RMK A01 T03290175  RH  040%=      5-min Rain = 0
KPD3 130018Z 03015KT 33/18 A2985 RMK A01 T03280176  RH  040%=      5-min Rain = 0
KPD3 130019Z 03015KT 33/18 A2985 RMK A01 T03270175  RH  041%=      5-min Rain = 0
KPD3 130020Z 03014KT 33/18 A2985 RMK A01 T03250175  RH  041%=      5-min Rain = 0
KPD3 130021Z 03016KT 32/18 A2986 RMK A01 T03230175  RH  041%=      5-min Rain = 0
KPD3 130022Z 03012G18KT 32/18 A2986 RMK A01 T03220175  RH  041%=      5-min Rain = 0
KPD3 130023Z 03016KT 32/18 A2986 RMK A01 T03220175  RH  041%=      5-min Rain = 0
KPD3 130024Z 03015KT 32/17 A2986 RMK A01 T03220174  RH  041%=      5-min Rain = 0
KPD3 130025Z 03018KT 32/17 A2986 RMK A01 T03210174  RH  041%=      5-min Rain = 0
KPD3 130026Z 04016KT 32/17 A2986 RMK A01 T03210174  RH  042%=      5-min Rain = 0
KPD3 130027Z 04015KT 32/17 A2986 RMK A01 T03210174  RH  042%=      5-min Rain = 0
KPD3 130028Z 04014KT 32/17 A2986 RMK A01 T03210174  RH  042%=      5-min Rain = 0
KPD3 130029Z 04014G19KT 32/17 A2986 RMK A01 T03210173  RH  041%=      5-min Rain = 0
KPD3 130030Z 04016KT 32/17 A2986 RMK A01 T03210172  RH  041%=      5-min Rain = 0
KPD3 130031Z 04017KT 32/17 A2986 RMK A01 T03220172  RH  041%=      5-min Rain = 0
KPD3 130032Z 04018KT 32/17 A2986 RMK A01 T03210173  RH  041%=      5-min Rain = 0
KPD3 130033Z 04019G24KT 32/17 A2986 RMK A01 T03210174  RH  042%=      5-min Rain = 0
KPD3 130034Z 03018KT 32/17 A2986 RMK A01 T03190174  RH  042%=      5-min Rain = 0
KPD3 130035Z 04017KT 32/18 A2986 RMK A01 T03180175  RH  043%=      5-min Rain = 0
KPD3 130036Z 04017KT 32/18 A2986 RMK A01 T03160175  RH  043%=      5-min Rain = 0
KPD3 130037Z 04020KT 32/18 A2986 RMK A01 T03160176  RH  043%=      5-min Rain = 0
KPD3 130038Z 04018KT 32/18 A2986 RMK A01 T03150175  RH  043%=      5-min Rain = 0
KPD3 130039Z 04015KT 31/18 A2986 RMK A01 T03140175  RH  043%=      5-min Rain = 0
KPD3 130040Z 04015KT 31/18 A2986 RMK A01 T03140175  RH  043%=      5-min Rain = 0
KPD3 130041Z 04018KT 31/18 A2986 RMK A01 T03140175  RH  043%=      5-min Rain = 0
KPD3 130042Z 04017KT 31/18 A2986 RMK A01 T03140175  RH  044%=      5-min Rain = 0
KPD3 130043Z 04016KT 31/18 A2986 RMK A01 T03130175  RH  044%=      5-min Rain = 0
KPD3 130044Z 04017KT 31/18 A2986 RMK A01 T03130175  RH  044%=      5-min Rain = 0
KPD3 130045Z 03018KT 31/18 A2986 RMK A01 T03120175  RH  044%=      5-min Rain = 0
KPD3 130046Z 04016KT 31/18 A2986 RMK A01 T03110176  RH  044%=      5-min Rain = 0
KPD3 130047Z 04017KT 31/18 A2986 RMK A01 T03100175  RH  044%=      5-min Rain = 0
KPD3 130048Z 05016KT 31/18 A2986 RMK A01 T03100175  RH  045%=      5-min Rain = 0
KPD3 130049Z 05019KT 31/18 A2986 RMK A01 T03100175  RH  045%=      5-min Rain = 0
KPD3 130050Z 05015G20KT 31/18 A2986 RMK A01 T03090175  RH  045%=      5-min Rain = 0
KPD3 130051Z 05013G20KT 31/18 A2986 RMK A01 T03090175  RH  045%=      5-min Rain = 0
KPD3 130052Z 04016KT 31/18 A2986 RMK A01 T03090175  RH  045%=      5-min Rain = 0
KPD3 130053Z 05015KT 31/18 A2986 RMK A01 T03080176  RH  045%=      5-min Rain = 0
KPD3 130054Z 04013KT 31/18 A2986 RMK A01 T03070176  RH  045%=      5-min Rain = 0
KPD3 130055Z 05017KT 31/18 A2986 RMK A01 T03060177  RH  046%=      5-min Rain = 0
KPD3 130056Z 04013KT 31/18 A2987 RMK A01 T03050177  RH  046%=      5-min Rain = 0
KPD3 130057Z 04012G17KT 30/18 A2987 RMK A01 T03040178  RH  047%=      5-min Rain = 0
KPD3 130058Z 04014KT 30/18 A2987 RMK A01 T03030178  RH  047%=      5-min Rain = 0
KPD3 130059Z 04014KT 30/18 A2987 RMK A01 T03020179  RH  047%=      5-min Rain = 0
KPD3 130100Z 04016KT 30/18 A2987 RMK A01 T03020179  RH  048%=      5-min Rain = 0
KPD3 130101Z 04015KT 30/18 A2987 RMK A01 T03000180  RH  048%=      5-min Rain = 0
KPD3 130102Z 04014KT 30/18 A2987 RMK A01 T03000180  RH  049%=      5-min Rain = 0
KPD3 130103Z 04014KT 30/18 A2987 RMK A01 T02990181  RH  049%=      5-min Rain = 0
KPD3 130104Z 03012KT 30/18 A2987 RMK A01 T02980181  RH  049%=      5-min Rain = 0
KPD3 130105Z 03011KT 30/18 A2987 RMK A01 T02980181  RH  050%=      5-min Rain = 0
KPD3 130106Z 03009KT 30/18 A2987 RMK A01 T02980181  RH  050%=      5-min Rain = 0
KPD3 130107Z 03014KT 30/18 A2987 RMK A01 T02970181  RH  050%=      5-min Rain = 0
KPD3 130108Z 03013KT 30/18 A2987 RMK A01 T02970181  RH  050%=      5-min Rain = 0
KPD3 130109Z 03015KT 30/18 A2987 RMK A01 T02960181  RH  050%=      5-min Rain = 0
KPD3 130110Z 04015KT 30/18 A2988 RMK A01 T02950182  RH  051%=      5-min Rain = 0
KPD3 130111Z 03012KT 30/18 A2988 RMK A01 T02950182  RH  051%=      5-min Rain = 0
KPD3 130112Z 03013G18KT 29/18 A2988 RMK A01 T02940183  RH  051%=      5-min Rain = 0
KPD3 130113Z 03015KT 29/18 A2988 RMK A01 T02940182  RH  051%=      5-min Rain = 0
KPD3 130114Z 03011KT 29/18 A2988 RMK A01 T02930183  RH  051%=      5-min Rain = 0
KPD3 130115Z 03013KT 29/18 A2988 RMK A01 T02930183  RH  052%=      5-min Rain = 0
KPD3 130116Z 04013KT 29/18 A2988 RMK A01 T02910183  RH  052%=      5-min Rain = 0
KPD3 130117Z 04011KT 29/18 A2988 RMK A01 T02910183  RH  052%=      5-min Rain = 0
KPD3 130118Z 03012KT 29/18 A2988 RMK A01 T02910184  RH  052%=      5-min Rain = 0
KPD3 130119Z 03013KT 29/18 A2988 RMK A01 T02900183  RH  053%=      5-min Rain = 0
KPD3 130120Z 05014KT 29/18 A2988 RMK A01 T02900184  RH  053%=      5-min Rain = 0
KPD3 130121Z 03013KT 29/18 A2988 RMK A01 T02900184  RH  053%=      5-min Rain = 0
KPD3 130122Z 04011KT 29/18 A2988 RMK A01 T02890184  RH  053%=      5-min Rain = 0
KPD3 130123Z 04012KT 29/18 A2988 RMK A01 T02880184  RH  053%=      5-min Rain = 0
KPD3 130124Z 04013KT 29/18 A2988 RMK A01 T02880184  RH  053%=      5-min Rain = 0
KPD3 130125Z 03011KT 29/18 A2988 RMK A01 T02880184  RH  054%=      5-min Rain = 0
KPD3 130126Z 04010KT 29/19 A2988 RMK A01 T02870185  RH  054%=      5-min Rain = 0
KPD3 130127Z 03009KT 29/19 A2988 RMK A01 T02870185  RH  054%=      5-min Rain = 0
KPD3 130128Z 04011KT 29/19 A2988 RMK A01 T02860185  RH  054%=      5-min Rain = 0
KPD3 130129Z 04011KT 29/19 A2988 RMK A01 T02860185  RH  054%=      5-min Rain = 0
KPD3 130130Z 03011KT 29/18 A2988 RMK A01 T02860184  RH  054%=      5-min Rain = 0
KPD3 130131Z 03009KT 29/19 A2988 RMK A01 T02850185  RH  054%=      5-min Rain = 0
KPD3 130132Z 03010KT 29/19 A2988 RMK A01 T02850185  RH  055%=      5-min Rain = 0
KPD3 130133Z 02011KT 28/18 A2988 RMK A01 T02840184  RH  055%=      5-min Rain = 0
KPD3 130134Z 02010KT 28/19 A2988 RMK A01 T02840185  RH  055%=      5-min Rain = 0
KPD3 130135Z 01011KT 28/19 A2988 RMK A01 T02840185  RH  055%=      5-min Rain = 0
KPD3 130136Z 01010KT 28/19 A2988 RMK A01 T02840185  RH  055%=      5-min Rain = 0
KPD3 130137Z 01010KT 28/19 A2988 RMK A01 T02840185  RH  055%=      5-min Rain = 0
KPD3 130138Z 36011KT 28/19 A2989 RMK A01 T02840185  RH  055%=      5-min Rain = 0
KPD3 130139Z 00011KT 28/19 A2989 RMK A01 T02830185  RH  055%=      5-min Rain = 0
KPD3 130140Z 36010KT 28/19 A2989 RMK A01 T02830185  RH  055%=      5-min Rain = 0
KPD3 130141Z 35010KT 28/19 A2989 RMK A01 T02830185  RH  055%=      5-min Rain = 0
KPD3 130142Z 34010KT 28/19 A2989 RMK A01 T02820186  RH  056%=      5-min Rain = 0
KPD3 130143Z 34011KT 28/19 A2989 RMK A01 T02820187  RH  056%=      5-min Rain = 0
KPD3 130144Z 35012KT 28/19 A2989 RMK A01 T02800187  RH  057%=      5-min Rain = 0
KPD3 130145Z 35013KT 28/19 A2989 RMK A01 T02800187  RH  057%=      5-min Rain = 0
KPD3 130146Z 35011KT 28/19 A299 RMK A01 T02790188  RH  058%=      5-min Rain = 0
KPD3 130147Z 35012KT 28/19 A299 RMK A01 T02770188  RH  058%=      5-min Rain = 0
KPD3 130148Z 35011KT 28/19 A299 RMK A01 T02770189  RH  059%=      5-min Rain = 0
KPD3 130149Z 35012KT 28/19 A299 RMK A01 T02760189  RH  059%=      5-min Rain = 0
KPD3 130150Z 35011KT 28/19 A299 RMK A01 T02750189  RH  059%=      5-min Rain = 0
KPD3 130151Z 35013KT 28/19 A299 RMK A01 T02750189  RH  059%=      5-min Rain = 0
KPD3 130152Z 35014KT 28/19 A299 RMK A01 T02750188  RH  059%=      5-min Rain = 0
KPD3 130153Z 36013KT 28/19 A299 RMK A01 T02750188  RH  059%=      5-min Rain = 0
KPD3 130154Z 36010KT 28/19 A299 RMK A01 T02760187  RH  059%=      5-min Rain = 0
KPD3 130155Z 00012KT 28/19 A299 RMK A01 T02760187  RH  058%=      5-min Rain = 0
KPD3 130156Z 36011KT 28/19 A299 RMK A01 T02760187  RH  058%=      5-min Rain = 0
KPD3 130157Z 36012KT 28/19 A299 RMK A01 T02770186  RH  058%=      5-min Rain = 0
KPD3 130158Z 00014KT 28/19 A299 RMK A01 T02770185  RH  057%=      5-min Rain = 0
KPD3 130159Z 00014KT 28/19 A299 RMK A01 T02780185  RH  057%=      5-min Rain = 0
KPD3 130200Z 01011KT 28/19 A299 RMK A01 T02780185  RH  057%=      5-min Rain = 0
KPD3 130201Z 00011KT 28/19 A299 RMK A01 T02790185  RH  057%=      5-min Rain = 0
KPD3 130202Z 01012KT 28/18 A299 RMK A01 T02790184  RH  056%=      5-min Rain = 0
KPD3 130203Z 01014KT 28/18 A299 RMK A01 T02790184  RH  056%=      5-min Rain = 0
KPD3 130204Z 02012KT 28/18 A299 RMK A01 T02800183  RH  056%=      5-min Rain = 0
KPD3 130205Z 02012KT 28/18 A299 RMK A01 T02810183  RH  055%=      5-min Rain = 0
KPD3 130206Z 02014KT 28/18 A299 RMK A01 T02810183  RH  055%=      5-min Rain = 0
KPD3 130207Z 02015KT 28/18 A299 RMK A01 T02820182  RH  055%=      5-min Rain = 0
KPD3 130208Z 02014KT 28/18 A299 RMK A01 T02820181  RH  054%=      5-min Rain = 0
KPD3 130209Z 02017KT 28/18 A299 RMK A01 T02830181  RH  054%=      5-min Rain = 0
KPD3 130210Z 03013KT 28/18 A299 RMK A01 T02830181  RH  054%=      5-min Rain = 0
KPD3 130211Z 04014KT 28/18 A299 RMK A01 T02840181  RH  054%=      5-min Rain = 0
KPD3 130212Z 04015KT 28/18 A299 RMK A01 T02840182  RH  054%=      5-min Rain = 0
KPD3 130213Z 04015G21KT 28/18 A299 RMK A01 T02840182  RH  054%=      5-min Rain = 0
KPD3 130214Z 03017KT 28/18 A299 RMK A01 T02840182  RH  054%=      5-min Rain = 0
KPD3 130215Z 03015KT 28/18 A299 RMK A01 T02830182  RH  054%=      5-min Rain = 0
KPD3 130216Z 03013KT 28/18 A299 RMK A01 T02830183  RH  055%=      5-min Rain = 0
KPD3 130217Z 03014G19KT 28/18 A299 RMK A01 T02820183  RH  055%=      5-min Rain = 0
KPD3 130218Z 03013KT 28/18 A299 RMK A01 T02820183  RH  055%=      5-min Rain = 0
KPD3 130219Z 03011KT 28/18 A299 RMK A01 T02810184  RH  055%=      5-min Rain = 0
KPD3 130220Z 03014KT 28/18 A2991 RMK A01 T02810184  RH  056%=      5-min Rain = 0
KPD3 130221Z 03012KT 28/18 A2991 RMK A01 T02800184  RH  056%=      5-min Rain = 0
KPD3 130222Z 03012KT 28/18 A2991 RMK A01 T02790184  RH  056%=      5-min Rain = 0
KPD3 130223Z 02010KT 28/19 A2991 RMK A01 T02790185  RH  057%=      5-min Rain = 0
KPD3 130224Z 02013KT 28/19 A2991 RMK A01 T02780185  RH  057%=      5-min Rain = 0
KPD3 130225Z 02010KT 28/19 A2991 RMK A01 T02780185  RH  057%=      5-min Rain = 0
KPD3 130226Z 02011KT 28/19 A2991 RMK A01 T02770185  RH  057%=      5-min Rain = 0
KPD3 130227Z 02013KT 28/19 A2991 RMK A01 T02770185  RH  057%=      5-min Rain = 0
KPD3 130228Z 02012KT 28/19 A2992 RMK A01 T02760185  RH  058%=      5-min Rain = 0
KPD3 130229Z 01011KT 28/19 A2992 RMK A01 T02760186  RH  058%=      5-min Rain = 0
KPD3 130230Z 03010KT 28/19 A2992 RMK A01 T02760186  RH  058%=      5-min Rain = 0
KPD3 130231Z 03012KT 28/19 A2992 RMK A01 T02750186  RH  058%=      5-min Rain = 0
KPD3 130232Z 02011KT 28/19 A2992 RMK A01 T02750186  RH  058%=      5-min Rain = 0
KPD3 130233Z 02011KT 27/19 A2992 RMK A01 T02740186  RH  059%=      5-min Rain = 0
KPD3 130234Z 02011KT 27/19 A2992 RMK A01 T02740187  RH  059%=      5-min Rain = 0
KPD3 130235Z 02010KT 27/19 A2993 RMK A01 T02740187  RH  059%=      5-min Rain = 0
KPD3 130236Z 02008KT 27/19 A2993 RMK A01 T02730187  RH  059%=      5-min Rain = 0
KPD3 130237Z 03010KT 27/19 A2993 RMK A01 T02730187  RH  059%=      5-min Rain = 0
KPD3 130238Z 03010KT 27/19 A2993 RMK A01 T02730187  RH  059%=      5-min Rain = 0
KPD3 130239Z 03010KT 27/19 A2993 RMK A01 T02730187  RH  059%=      5-min Rain = 0
KPD3 130240Z 03010KT 27/19 A2993 RMK A01 T02730187  RH  059%=      5-min Rain = 0
KPD3 130241Z 03010KT 27/19 A2993 RMK A01 T02720187  RH  059%=      5-min Rain = 0
KPD3 130242Z 04008KT 27/19 A2993 RMK A01 T02720187  RH  059%=      5-min Rain = 0
KPD3 130243Z 05007KT 27/19 A2993 RMK A01 T02720187  RH  060%=      5-min Rain = 0
KPD3 130244Z 05009KT 27/19 A2994 RMK A01 T02720188  RH  060%=      5-min Rain = 0
KPD3 130245Z 04010KT 27/19 A2994 RMK A01 T02720188  RH  060%=      5-min Rain = 0
KPD3 130246Z 04010KT 27/19 A2994 RMK A01 T02710188  RH  060%=      5-min Rain = 0
KPD3 130247Z 03010KT 27/19 A2994 RMK A01 T02710188  RH  060%=      5-min Rain = 0
KPD3 130248Z 04010KT 27/19 A2994 RMK A01 T02710188  RH  060%=      5-min Rain = 0
KPD3 130249Z 03010KT 27/19 A2994 RMK A01 T02710188  RH  061%=      5-min Rain = 0
KPD3 130250Z 04009KT 27/19 A2994 RMK A01 T02710188  RH  061%=      5-min Rain = 0
KPD3 130251Z 03010KT 27/19 A2994 RMK A01 T02710189  RH  061%=      5-min Rain = 0
KPD3 130252Z 03009KT 27/19 A2994 RMK A01 T02700188  RH  061%=      5-min Rain = 0
KPD3 130253Z 04007KT 27/19 A2994 RMK A01 T02700187  RH  060%=      5-min Rain = 0
KPD3 130254Z 03008KT 27/19 A2994 RMK A01 T02700188  RH  061%=      5-min Rain = 0
KPD3 130255Z 03009KT 27/19 A2994 RMK A01 T02700188  RH  061%=      5-min Rain = 0
KPD3 130256Z 04006KT 27/19 A2994 RMK A01 T02700188  RH  061%=      5-min Rain = 0
KPD3 130257Z 04008KT 27/19 A2994 RMK A01 T02700189  RH  061%=      5-min Rain = 0
KPD3 130258Z 03008KT 27/19 A2994 RMK A01 T02690188  RH  061%=      5-min Rain = 0
KPD3 130259Z 03008KT 27/19 A2994 RMK A01 T02700188  RH  061%=      5-min Rain = 0
KPD3 130300Z 04009KT 27/19 A2994 RMK A01 T02700189  RH  061%=      5-min Rain = 0
KPD3 130301Z 04007KT 27/19 A2994 RMK A01 T02690189  RH  062%=      5-min Rain = 0
KPD3 130302Z 04006KT 27/19 A2994 RMK A01 T02690190  RH  062%=      5-min Rain = 0
KPD3 130303Z 04008KT 27/19 A2994 RMK A01 T02690190  RH  062%=      5-min Rain = 0
KPD3 130304Z 05007KT 27/19 A2994 RMK A01 T02680190  RH  062%=      5-min Rain = 0
KPD3 130305Z 05007KT 27/19 A2995 RMK A01 T02680190  RH  062%=      5-min Rain = 0
KPD3 130306Z 05007KT 27/19 A2995 RMK A01 T02680190  RH  063%=      5-min Rain = 0
KPD3 130307Z 05007KT 27/19 A2995 RMK A01 T02670190  RH  063%=      5-min Rain = 0
KPD3 130308Z 05010KT 27/19 A2994 RMK A01 T02670191  RH  063%=      5-min Rain = 0
KPD3 130309Z 05007KT 27/19 A2995 RMK A01 T02670191  RH  063%=      5-min Rain = 0
KPD3 130310Z 04007KT 27/19 A2994 RMK A01 T02670191  RH  063%=      5-min Rain = 0
KPD3 130311Z 04009KT 27/19 A2994 RMK A01 T02660192  RH  064%=      5-min Rain = 0
KPD3 130312Z 04008KT 27/19 A2995 RMK A01 T02660191  RH  064%=      5-min Rain = 0
KPD3 130313Z 05010KT 27/19 A2995 RMK A01 T02660192  RH  064%=      5-min Rain = 0
KPD3 130314Z 04008KT 27/19 A2995 RMK A01 T02650192  RH  064%=      5-min Rain = 0
KPD3 130315Z 04009KT 27/19 A2995 RMK A01 T02650192  RH  064%=      5-min Rain = 0
KPD3 130316Z 04010KT 27/19 A2995 RMK A01 T02650192  RH  064%=      5-min Rain = 0
KPD3 130317Z 04009KT 27/19 A2995 RMK A01 T02650192  RH  064%=      5-min Rain = 0
KPD3 130318Z 03008KT 26/19 A2995 RMK A01 T02640192  RH  064%=      5-min Rain = 0
KPD3 130319Z 03008KT 26/19 A2995 RMK A01 T02640192  RH  064%=      5-min Rain = 0
KPD3 130320Z 03010KT 26/19 A2995 RMK A01 T02640191  RH  064%=      5-min Rain = 0
KPD3 130321Z 03008KT 26/19 A2995 RMK A01 T02640191  RH  064%=      5-min Rain = 0
KPD3 130322Z 03008KT 26/19 A2995 RMK A01 T02640191  RH  064%=      5-min Rain = 0
KPD3 130323Z 03009KT 26/19 A2995 RMK A01 T02640191  RH  064%=      5-min Rain = 0
KPD3 130324Z 03010KT 26/19 A2995 RMK A01 T02640192  RH  064%=      5-min Rain = 0
KPD3 130325Z 03009KT 26/19 A2995 RMK A01 T02630191  RH  064%=      5-min Rain = 0
KPD3 130326Z 03008KT 26/19 A2995 RMK A01 T02630191  RH  064%=      5-min Rain = 0
KPD3 130327Z 03007KT 26/19 A2995 RMK A01 T02630191  RH  064%=      5-min Rain = 0
KPD3 130328Z 03008KT 26/19 A2995 RMK A01 T02630191  RH  064%=      5-min Rain = 0
KPD3 130329Z 03008KT 26/19 A2995 RMK A01 T02630190  RH  064%=      5-min Rain = 0
KPD3 130330Z 03007KT 26/19 A2995 RMK A01 T02630190  RH  064%=      5-min Rain = 0
KPD3 130331Z 03008KT 26/19 A2995 RMK A01 T02630191  RH  064%=      5-min Rain = 0
KPD3 130332Z 04008KT 26/19 A2995 RMK A01 T02630190  RH  064%=      5-min Rain = 0
KPD3 130333Z 03007KT 26/19 A2995 RMK A01 T02630190  RH  064%=      5-min Rain = 0
KPD3 130334Z 04008KT 26/19 A2995 RMK A01 T02630190  RH  064%=      5-min Rain = 0
KPD3 130335Z 04007KT 26/19 A2995 RMK A01 T02630190  RH  064%=      5-min Rain = 0
KPD3 130336Z 03008KT 26/19 A2995 RMK A01 T02630188  RH  063%=      5-min Rain = 0
KPD3 130337Z 03008KT 26/19 A2995 RMK A01 T02640187  RH  063%=      5-min Rain = 0
KPD3 130338Z 03008KT 27/19 A2995 RMK A01 T02650187  RH  062%=      5-min Rain = 0
KPD3 130339Z 03007KT 27/19 A2995 RMK A01 T02650187  RH  062%=      5-min Rain = 0
KPD3 130340Z 02007KT 27/19 A2995 RMK A01 T02650188  RH  063%=      5-min Rain = 0
KPD3 130341Z 02008KT 27/19 A2995 RMK A01 T02650188  RH  063%=      5-min Rain = 0
KPD3 130342Z 02008KT 27/19 A2995 RMK A01 T02650188  RH  063%=      5-min Rain = 0
KPD3 130343Z 02007KT 27/19 A2996 RMK A01 T02650188  RH  063%=      5-min Rain = 0
KPD3 130344Z 01008KT 27/19 A2996 RMK A01 T02650187  RH  063%=      5-min Rain = 0
KPD3 130345Z 02008KT 26/19 A2996 RMK A01 T02640188  RH  063%=      5-min Rain = 0
KPD3 130346Z 02008KT 26/19 A2996 RMK A01 T02640188  RH  063%=      5-min Rain = 0
KPD3 130347Z 02008KT 26/19 A2996 RMK A01 T02640188  RH  063%=      5-min Rain = 0
KPD3 130348Z 02009KT 26/19 A2996 RMK A01 T02640188  RH  063%=      5-min Rain = 0
KPD3 130349Z 02009KT 26/19 A2997 RMK A01 T02630187  RH  063%=      5-min Rain = 0
KPD3 130350Z 03011KT 26/19 A2997 RMK A01 T02640187  RH  063%=      5-min Rain = 0
KPD3 130351Z 03009G14KT 26/19 A2997 RMK A01 T02640187  RH  062%=      5-min Rain = 0
KPD3 130352Z 02014KT 26/19 A2997 RMK A01 T02640186  RH  062%=      5-min Rain = 0
KPD3 130353Z 02012KT 26/19 A2997 RMK A01 T02640186  RH  062%=      5-min Rain = 0
KPD3 130354Z 01013KT 26/19 A2998 RMK A01 T02640187  RH  063%=      5-min Rain = 0
KPD3 130355Z 02014G19KT 26/19 A2998 RMK A01 T02640189  RH  063%=      5-min Rain = 0
KPD3 130356Z 03015KT 26/19 A2998 RMK A01 T02630189  RH  064%=      5-min Rain = 0
KPD3 130357Z 02014KT 26/19 A2998 RMK A01 T02620189  RH  064%=      5-min Rain = 0
KPD3 130358Z 02011KT 26/19 A2998 RMK A01 T02620189  RH  064%=      5-min Rain = 0
KPD3 130359Z 02009KT 26/19 A2998 RMK A01 T02620189  RH  064%=      5-min Rain = 0
KPD3 130400Z 02008KT 26/19 A2998 RMK A01 T02630190  RH  064%=      5-min Rain = 0
KPD3 130401Z 02007KT 26/19 A2999 RMK A01 T02620190  RH  064%=      5-min Rain = 0
KPD3 130402Z 01009KT 26/19 A2999 RMK A01 T02620191  RH  065%=      5-min Rain = 0
KPD3 130403Z 01008KT 26/19 A2999 RMK A01 T02620194  RH  066%=      5-min Rain = 0
KPD3 130404Z 02009KT 26/19 A2999 RMK A01 T02610194  RH  067%=      5-min Rain = 0
KPD3 130405Z 00009KT 26/19 A2999 RMK A01 T02600194  RH  067%=      5-min Rain = 0
KPD3 130406Z 00010KT 26/20 A2999 RMK A01 T02600195  RH  067%=      5-min Rain = 0
KPD3 130407Z 36012KT 26/19 A2999 RMK A01 T02590194  RH  067%=      5-min Rain = 0
KPD3 130408Z 35013KT 26/19 A2999 RMK A01 T02600194  RH  067%=      5-min Rain = 0
KPD3 130409Z 35014KT 26/19 A2999 RMK A01 T02590194  RH  067%=      5-min Rain = 0
KPD3 130410Z 34012KT 26/19 A30 RMK A01 T02590194  RH  067%=      5-min Rain = 0
KPD3 130411Z 34011KT 26/20 A30 RMK A01 T02590195  RH  068%=      5-min Rain = 0
KPD3 130412Z 35014KT 26/20 A30 RMK A01 T02580196  RH  068%=      5-min Rain = 0
KPD3 130413Z 35016KT 26/20 A30 RMK A01 T02570196  RH  069%=      5-min Rain = 0
KPD3 130414Z 35016KT 26/20 A30 RMK A01 T02570195  RH  069%=      5-min Rain = 0
KPD3 130415Z 35016KT 26/20 A30 RMK A01 T02560195  RH  069%=      5-min Rain = 0
KPD3 130416Z 36014KT 26/20 A30 RMK A01 T02550195  RH  069%=      5-min Rain = 0
KPD3 130417Z 36015KT 26/19 A30 RMK A01 T02550194  RH  069%=      5-min Rain = 0
KPD3 130418Z 36013KT 26/19 A30 RMK A01 T02550194  RH  069%=      5-min Rain = 0
KPD3 130419Z 01012KT 26/19 A30 RMK A01 T02550194  RH  069%=      5-min Rain = 0
KPD3 130420Z 00011KT 26/20 A3001 RMK A01 T02550195  RH  069%=      5-min Rain = 0
KPD3 130421Z 00015G22KT 26/19 A3001 RMK A01 T02550194  RH  069%=      5-min Rain = 0
KPD3 130422Z 36017KT 26/19 A3001 RMK A01 T02550194  RH  069%=      5-min Rain = 0
KPD3 130423Z 01017KT 26/19 A3001 RMK A01 T02550193  RH  069%=      5-min Rain = 0
KPD3 130424Z 00014KT 26/19 A3001 RMK A01 T02550193  RH  068%=      5-min Rain = 0
KPD3 130425Z 00015KT 26/19 A30 RMK A01 T02550193  RH  069%=      5-min Rain = 0
KPD3 130426Z 36014KT 26/19 A30 RMK A01 T02550194  RH  069%=      5-min Rain = 0
KPD3 130427Z 00018G23KT 25/19 A30 RMK A01 T02540194  RH  069%=      5-min Rain = 0
KPD3 130428Z 01018KT 25/19 A30 RMK A01 T02530194  RH  070%=      5-min Rain = 0
KPD3 130429Z 01018KT 25/19 A3001 RMK A01 T02520194  RH  070%=      5-min Rain = 0
KPD3 130430Z 01019KT 25/19 A30 RMK A01 T02520194  RH  070%=      5-min Rain = 0
KPD3 130431Z 01016KT 25/20 A30 RMK A01 T02510195  RH  071%=      5-min Rain = 0
KPD3 130432Z 01013KT 25/20 A3001 RMK A01 T02510195  RH  071%=      5-min Rain = 0
KPD3 130433Z 02016KT 25/19 A3001 RMK A01 T02500194  RH  071%=      5-min Rain = 0
KPD3 130434Z 02015KT 25/19 A3001 RMK A01 T02500194  RH  071%=      5-min Rain = 0
KPD3 130435Z 01013KT 25/19 A3001 RMK A01 T02500193  RH  071%=      5-min Rain = 0
KPD3 130436Z 01014KT 25/19 A3001 RMK A01 T02500194  RH  071%=      5-min Rain = 0
KPD3 130437Z 02016KT 25/20 A3001 RMK A01 T02500195  RH  071%=      5-min Rain = 0
KPD3 130438Z 02011KT 25/19 A3001 RMK A01 T02490194  RH  072%=      5-min Rain = 0
KPD3 130439Z 02012KT 25/20 A3001 RMK A01 T02480195  RH  072%=      5-min Rain = 0
KPD3 130440Z 02014KT 25/20 A3001 RMK A01 T02480195  RH  073%=      5-min Rain = 0
KPD3 130441Z 02012G17KT 25/20 A3001 RMK A01 T02470195  RH  073%=      5-min Rain = 0
KPD3 130442Z 01013KT 25/20 A3001 RMK A01 T02460196  RH  074%=      5-min Rain = 0
KPD3 130443Z 01016G22KT 25/20 A3001 RMK A01 T02450195  RH  074%=      5-min Rain = 0
KPD3 130444Z 01013KT 24/20 A3001 RMK A01 T02440195  RH  074%=      5-min Rain = 0
KPD3 130445Z 01016KT 24/20 A3001 RMK A01 T02430196  RH  075%=      5-min Rain = 0
KPD3 130446Z 01015KT 24/20 A3001 RMK A01 T02420197  RH  076%=      5-min Rain = 0
KPD3 130447Z 01014KT 24/20 A3001 RMK A01 T02410197  RH  076%=      5-min Rain = 0
KPD3 130448Z 01013KT 24/20 A3001 RMK A01 T02400197  RH  077%=      5-min Rain = 0
KPD3 130449Z 00014KT 24/20 A3001 RMK A01 T02390197  RH  077%=      5-min Rain = 0
KPD3 130450Z 01016KT 24/20 A3001 RMK A01 T02370198  RH  078%=      5-min Rain = 0
KPD3 130451Z 01015KT 24/20 A3001 RMK A01 T02360197  RH  079%=      5-min Rain = 0
KPD3 130452Z 01016KT 24/20 A3001 RMK A01 T02350197  RH  080%=      5-min Rain = 0
KPD3 130453Z 01015KT 23/20 A3001 RMK A01 T02330197  RH  080%=      5-min Rain = 0
KPD3 130454Z 01016KT 23/20 A3001 RMK A01 T02330197  RH  080%=      5-min Rain = 0
KPD3 130455Z 02014KT 23/20 A3001 RMK A01 T02320198  RH  081%=      5-min Rain = 0
KPD3 130456Z 01015KT 23/20 A3001 RMK A01 T02320198  RH  081%=      5-min Rain = 0
KPD3 130457Z 02013G18KT 23/20 A3001 RMK A01 T02320198  RH  081%=      5-min Rain = 0
KPD3 130458Z 02013KT 23/20 A3001 RMK A01 T02320198  RH  081%=      5-min Rain = 0
KPD3 130459Z 02016KT 23/20 A3001 RMK A01 T02310197  RH  081%=      5-min Rain = 0

Page generated in 0.1288 seconds.